<?xml version="1.0" encoding="UTF-8"?>
<gpx xmlns="http://www.topografix.com/GPX/1/1" xmlns:gpsies="http://www.gpsies.com/GPX/1/0" creator="GPSies http://www.gpsies.com - dfgtfrd" version="1.1" xmlns:xsi="http://www.w3.org/2001/XMLSchema-instance" xsi:schemaLocation="http://www.topografix.com/GPX/1/1 http://www.topografix.com/GPX/1/1/gpx.xsd http://www.gpsies.com/GPX/1/0 http://www.gpsies.com/gpsies.xsd">
  <metadata>
    <name>dfgtfrd</name>
    <author>
      <name>nik0tin</name>
      <link href="http://www.gpsies.com/mapUser.do?username=nik0tin">
        <text>nik0tin on GPSies.com</text>
        <type>GPSiesUserOnWeb</type>
      </link>
    </author>
    <link href="http://www.gpsies.com/map.do?fileId=tmukmtwsvgklhcgx">
      <text>dfgtfrd on GPSies.com</text>
      <type>trackOnWeb</type>
    </link>
    <time>2016-03-31T10:09:49Z</time>
    <extensions>
      <gpsies:property>one-way trip</gpsies:property>
      <gpsies:trackLengthMeter>332488.28730398027</gpsies:trackLengthMeter>
      <gpsies:totalAscentMeter>5247.0</gpsies:totalAscentMeter>
      <gpsies:totalDescentMeter>5123.0</gpsies:totalDescentMeter>
      <gpsies:minHeightMeter>436.0</gpsies:minHeightMeter>
      <gpsies:maxHeightMeter>872.0</gpsies:maxHeightMeter>
    </extensions>
  </metadata>
  <trk>
    <name>dfgtfrd on GPSies.com</name>
    <link href="http://www.gpsies.com/map.do?fileId=tmukmtwsvgklhcgx">
      <type>trackOnWeb</type>
    </link>
    <link href="http://www.gpsies.com/charts/tm/map/tmukmtwsvgklhcgx_map.png">
      <type>elevationChartUrlMap</type>
    </link>
    <link href="http://www.gpsies.com/charts/tm/mapThumb/tmukmtwsvgklhcgx_mapThumb.png">
      <type>elevationChartUrlMapThumb</type>
    </link>
    <link href="http://www.gpsies.com/charts/tm/tab/tmukmtwsvgklhcgx_tab.png">
      <type>elevationChartUrlTab</type>
    </link>
    <trkseg>
      <trkpt lat="31.33822300" lon="35.06901600">
        <ele>700.00000</ele>
        <time>2010-01-01T00:00:00Z</time>
      </trkpt>
      <trkpt lat="31.33814900" lon="35.06995200">
        <ele>705.00000</ele>
        <time>2010-01-01T00:00:32Z</time>
      </trkpt>
      <trkpt lat="31.33869100" lon="35.07083900">
        <ele>713.00000</ele>
        <time>2010-01-01T00:01:09Z</time>
      </trkpt>
      <trkpt lat="31.33839500" lon="35.07214400">
        <ele>717.00000</ele>
        <time>2010-01-01T00:01:55Z</time>
      </trkpt>
      <trkpt lat="31.33915800" lon="35.07298200">
        <ele>717.00000</ele>
        <time>2010-01-01T00:02:37Z</time>
      </trkpt>
      <trkpt lat="31.33888800" lon="35.07441000">
        <ele>719.00000</ele>
        <time>2010-01-01T00:03:27Z</time>
      </trkpt>
      <trkpt lat="31.33854300" lon="35.07545100">
        <ele>721.00000</ele>
        <time>2010-01-01T00:04:05Z</time>
      </trkpt>
      <trkpt lat="31.33824100" lon="35.07629200">
        <ele>721.00000</ele>
        <time>2010-01-01T00:04:36Z</time>
      </trkpt>
      <trkpt lat="31.33800300" lon="35.07705700">
        <ele>731.00000</ele>
        <time>2010-01-01T00:05:04Z</time>
      </trkpt>
      <trkpt lat="31.33758900" lon="35.07806100">
        <ele>733.00000</ele>
        <time>2010-01-01T00:05:42Z</time>
      </trkpt>
      <trkpt lat="31.33774000" lon="35.07832500">
        <ele>736.00000</ele>
        <time>2010-01-01T00:05:53Z</time>
      </trkpt>
      <trkpt lat="31.33811600" lon="35.07881400">
        <ele>740.00000</ele>
        <time>2010-01-01T00:06:16Z</time>
      </trkpt>
      <trkpt lat="31.33826700" lon="35.07916500">
        <ele>742.00000</ele>
        <time>2010-01-01T00:06:29Z</time>
      </trkpt>
      <trkpt lat="31.33825400" lon="35.08013100">
        <ele>744.00000</ele>
        <time>2010-01-01T00:07:02Z</time>
      </trkpt>
      <trkpt lat="31.33839200" lon="35.08109700">
        <ele>750.00000</ele>
        <time>2010-01-01T00:07:36Z</time>
      </trkpt>
      <trkpt lat="31.33864300" lon="35.08170000">
        <ele>752.00000</ele>
        <time>2010-01-01T00:07:59Z</time>
      </trkpt>
      <trkpt lat="31.33884400" lon="35.08210100">
        <ele>755.00000</ele>
        <time>2010-01-01T00:08:14Z</time>
      </trkpt>
      <trkpt lat="31.33894400" lon="35.08254000">
        <ele>759.00000</ele>
        <time>2010-01-01T00:08:30Z</time>
      </trkpt>
      <trkpt lat="31.33876900" lon="35.08287900">
        <ele>761.00000</ele>
        <time>2010-01-01T00:08:44Z</time>
      </trkpt>
      <trkpt lat="31.33831700" lon="35.08355700">
        <ele>767.00000</ele>
        <time>2010-01-01T00:09:13Z</time>
      </trkpt>
      <trkpt lat="31.33812800" lon="35.08417200">
        <ele>766.00000</ele>
        <time>2010-01-01T00:09:35Z</time>
      </trkpt>
      <trkpt lat="31.33835400" lon="35.08503700">
        <ele>771.00000</ele>
        <time>2010-01-01T00:10:06Z</time>
      </trkpt>
      <trkpt lat="31.33851700" lon="35.08574000">
        <ele>774.00000</ele>
        <time>2010-01-01T00:10:31Z</time>
      </trkpt>
      <trkpt lat="31.33820400" lon="35.08697000">
        <ele>778.00000</ele>
        <time>2010-01-01T00:11:15Z</time>
      </trkpt>
      <trkpt lat="31.33812800" lon="35.08828700">
        <ele>787.00000</ele>
        <time>2010-01-01T00:12:00Z</time>
      </trkpt>
      <trkpt lat="31.33829200" lon="35.08940400">
        <ele>793.00000</ele>
        <time>2010-01-01T00:12:39Z</time>
      </trkpt>
      <trkpt lat="31.33848000" lon="35.09074600">
        <ele>802.00000</ele>
        <time>2010-01-01T00:13:25Z</time>
      </trkpt>
      <trkpt lat="31.33863000" lon="35.09167500">
        <ele>805.00000</ele>
        <time>2010-01-01T00:13:58Z</time>
      </trkpt>
      <trkpt lat="31.33871800" lon="35.09251600">
        <ele>802.00000</ele>
        <time>2010-01-01T00:14:27Z</time>
      </trkpt>
      <trkpt lat="31.33031500" lon="35.09415400">
        <ele>841.00000</ele>
        <time>2010-01-01T00:20:08Z</time>
      </trkpt>
      <trkpt lat="31.32918100" lon="35.09307200">
        <ele>830.00000</ele>
        <time>2010-01-01T00:21:06Z</time>
      </trkpt>
      <trkpt lat="31.32719400" lon="35.09174700">
        <ele>811.00000</ele>
        <time>2010-01-01T00:22:38Z</time>
      </trkpt>
      <trkpt lat="31.32644400" lon="35.09082300">
        <ele>802.00000</ele>
        <time>2010-01-01T00:23:21Z</time>
      </trkpt>
      <trkpt lat="31.32507800" lon="35.08866100">
        <ele>781.00000</ele>
        <time>2010-01-01T00:24:53Z</time>
      </trkpt>
      <trkpt lat="31.32364900" lon="35.08797200">
        <ele>766.00000</ele>
        <time>2010-01-01T00:25:55Z</time>
      </trkpt>
      <trkpt lat="31.32179600" lon="35.08781300">
        <ele>759.00000</ele>
        <time>2010-01-01T00:27:10Z</time>
      </trkpt>
      <trkpt lat="31.32020700" lon="35.08760200">
        <ele>744.00000</ele>
        <time>2010-01-01T00:28:14Z</time>
      </trkpt>
      <trkpt lat="31.31830200" lon="35.08686000">
        <ele>730.00000</ele>
        <time>2010-01-01T00:29:34Z</time>
      </trkpt>
      <trkpt lat="31.31681900" lon="35.08654300">
        <ele>709.00000</ele>
        <time>2010-01-01T00:30:34Z</time>
      </trkpt>
      <trkpt lat="31.31512500" lon="35.08617200">
        <ele>691.00000</ele>
        <time>2010-01-01T00:31:43Z</time>
      </trkpt>
      <trkpt lat="31.31369500" lon="35.08585500">
        <ele>676.00000</ele>
        <time>2010-01-01T00:32:42Z</time>
      </trkpt>
      <trkpt lat="31.31194800" lon="35.08511300">
        <ele>651.00000</ele>
        <time>2010-01-01T00:33:56Z</time>
      </trkpt>
      <trkpt lat="31.30998900" lon="35.08521900">
        <ele>631.00000</ele>
        <time>2010-01-01T00:35:14Z</time>
      </trkpt>
      <trkpt lat="31.30850700" lon="35.08442500">
        <ele>629.00000</ele>
        <time>2010-01-01T00:36:20Z</time>
      </trkpt>
      <trkpt lat="31.30691900" lon="35.08315400">
        <ele>617.00000</ele>
        <time>2010-01-01T00:37:37Z</time>
      </trkpt>
      <trkpt lat="31.30548900" lon="35.08251900">
        <ele>602.00000</ele>
        <time>2010-01-01T00:38:38Z</time>
      </trkpt>
      <trkpt lat="31.30458900" lon="35.08241300">
        <ele>590.00000</ele>
        <time>2010-01-01T00:39:14Z</time>
      </trkpt>
      <trkpt lat="31.30289500" lon="35.08236000">
        <ele>562.00000</ele>
        <time>2010-01-01T00:40:22Z</time>
      </trkpt>
      <trkpt lat="31.30167700" lon="35.08278400">
        <ele>556.00000</ele>
        <time>2010-01-01T00:41:13Z</time>
      </trkpt>
      <trkpt lat="31.30077700" lon="35.08341900">
        <ele>557.00000</ele>
        <time>2010-01-01T00:41:55Z</time>
      </trkpt>
      <trkpt lat="31.29982400" lon="35.08421300">
        <ele>551.00000</ele>
        <time>2010-01-01T00:42:42Z</time>
      </trkpt>
      <trkpt lat="31.29897700" lon="35.08601300">
        <ele>537.00000</ele>
        <time>2010-01-01T00:43:52Z</time>
      </trkpt>
      <trkpt lat="31.29712400" lon="35.08770800">
        <ele>526.00000</ele>
        <time>2010-01-01T00:45:26Z</time>
      </trkpt>
      <trkpt lat="31.29617100" lon="35.09083100">
        <ele>525.00000</ele>
        <time>2010-01-01T00:47:20Z</time>
      </trkpt>
      <trkpt lat="31.29521800" lon="35.09236600">
        <ele>525.00000</ele>
        <time>2010-01-01T00:48:24Z</time>
      </trkpt>
      <trkpt lat="31.29421200" lon="35.09427300">
        <ele>524.00000</ele>
        <time>2010-01-01T00:49:41Z</time>
      </trkpt>
      <trkpt lat="31.29167100" lon="35.09898500">
        <ele>517.00000</ele>
        <time>2010-01-01T00:52:52Z</time>
      </trkpt>
      <trkpt lat="31.28992300" lon="35.10311400">
        <ele>519.00000</ele>
        <time>2010-01-01T00:55:29Z</time>
      </trkpt>
      <trkpt lat="31.28860000" lon="35.10486200">
        <ele>515.00000</ele>
        <time>2010-01-01T00:56:49Z</time>
      </trkpt>
      <trkpt lat="31.28854700" lon="35.10777300">
        <ele>514.00000</ele>
        <time>2010-01-01T00:58:29Z</time>
      </trkpt>
      <trkpt lat="31.28621700" lon="35.10941500">
        <ele>508.00000</ele>
        <time>2010-01-01T01:00:18Z</time>
      </trkpt>
      <trkpt lat="31.28288200" lon="35.11031500">
        <ele>502.00000</ele>
        <time>2010-01-01T01:02:35Z</time>
      </trkpt>
      <trkpt lat="31.28118800" lon="35.11476200">
        <ele>526.00000</ele>
        <time>2010-01-01T01:05:21Z</time>
      </trkpt>
      <trkpt lat="31.27896400" lon="35.11995100">
        <ele>539.00000</ele>
        <time>2010-01-01T01:08:40Z</time>
      </trkpt>
      <trkpt lat="31.27832900" lon="35.12159200">
        <ele>535.00000</ele>
        <time>2010-01-01T01:09:42Z</time>
      </trkpt>
      <trkpt lat="31.27668700" lon="35.12281000">
        <ele>530.00000</ele>
        <time>2010-01-01T01:10:59Z</time>
      </trkpt>
      <trkpt lat="31.27594600" lon="35.12535100">
        <ele>528.00000</ele>
        <time>2010-01-01T01:12:31Z</time>
      </trkpt>
      <trkpt lat="31.27467500" lon="35.12836900">
        <ele>519.00000</ele>
        <time>2010-01-01T01:14:26Z</time>
      </trkpt>
      <trkpt lat="31.27202800" lon="35.13556900">
        <ele>506.00000</ele>
        <time>2010-01-01T01:18:54Z</time>
      </trkpt>
      <trkpt lat="31.26906300" lon="35.13916900">
        <ele>499.00000</ele>
        <time>2010-01-01T01:21:46Z</time>
      </trkpt>
      <trkpt lat="31.26662800" lon="35.14261100">
        <ele>496.00000</ele>
        <time>2010-01-01T01:24:18Z</time>
      </trkpt>
      <trkpt lat="31.26456300" lon="35.14430500">
        <ele>490.00000</ele>
        <time>2010-01-01T01:25:59Z</time>
      </trkpt>
      <trkpt lat="31.26233900" lon="35.14276900">
        <ele>490.00000</ele>
        <time>2010-01-01T01:27:43Z</time>
      </trkpt>
      <trkpt lat="31.26043400" lon="35.14139300">
        <ele>488.00000</ele>
        <time>2010-01-01T01:29:12Z</time>
      </trkpt>
      <trkpt lat="31.25842200" lon="35.13969900">
        <ele>488.00000</ele>
        <time>2010-01-01T01:30:52Z</time>
      </trkpt>
      <trkpt lat="31.25603900" lon="35.13837500">
        <ele>485.00000</ele>
        <time>2010-01-01T01:32:37Z</time>
      </trkpt>
      <trkpt lat="31.25503300" lon="35.13694600">
        <ele>484.00000</ele>
        <time>2010-01-01T01:33:41Z</time>
      </trkpt>
      <trkpt lat="31.25409700" lon="35.13537700">
        <ele>482.00000</ele>
        <time>2010-01-01T01:34:46Z</time>
      </trkpt>
      <trkpt lat="31.25344000" lon="35.13513500">
        <ele>480.00000</ele>
        <time>2010-01-01T01:35:14Z</time>
      </trkpt>
      <trkpt lat="31.25245500" lon="35.13404700">
        <ele>482.00000</ele>
        <time>2010-01-01T01:36:08Z</time>
      </trkpt>
      <trkpt lat="31.25186800" lon="35.13373600">
        <ele>479.00000</ele>
        <time>2010-01-01T01:36:34Z</time>
      </trkpt>
      <trkpt lat="31.25160900" lon="35.13323500">
        <ele>481.00000</ele>
        <time>2010-01-01T01:36:54Z</time>
      </trkpt>
      <trkpt lat="31.25126300" lon="35.13318300">
        <ele>480.00000</ele>
        <time>2010-01-01T01:37:08Z</time>
      </trkpt>
      <trkpt lat="31.25088300" lon="35.13204300">
        <ele>481.00000</ele>
        <time>2010-01-01T01:37:49Z</time>
      </trkpt>
      <trkpt lat="31.24984600" lon="35.13107500">
        <ele>487.00000</ele>
        <time>2010-01-01T01:38:43Z</time>
      </trkpt>
      <trkpt lat="31.24544000" lon="35.12832800">
        <ele>474.00000</ele>
        <time>2010-01-01T01:42:02Z</time>
      </trkpt>
      <trkpt lat="31.24367800" lon="35.12751500">
        <ele>473.00000</ele>
        <time>2010-01-01T01:43:18Z</time>
      </trkpt>
      <trkpt lat="31.24329700" lon="35.12851800">
        <ele>477.00000</ele>
        <time>2010-01-01T01:43:56Z</time>
      </trkpt>
      <trkpt lat="31.24271000" lon="35.12796500">
        <ele>474.00000</ele>
        <time>2010-01-01T01:44:26Z</time>
      </trkpt>
      <trkpt lat="31.24217400" lon="35.12851800">
        <ele>477.00000</ele>
        <time>2010-01-01T01:44:55Z</time>
      </trkpt>
      <trkpt lat="31.24141400" lon="35.12850100">
        <ele>479.00000</ele>
        <time>2010-01-01T01:45:25Z</time>
      </trkpt>
      <trkpt lat="31.24091300" lon="35.12889800">
        <ele>482.00000</ele>
        <time>2010-01-01T01:45:49Z</time>
      </trkpt>
      <trkpt lat="31.24023900" lon="35.12927800">
        <ele>484.00000</ele>
        <time>2010-01-01T01:46:19Z</time>
      </trkpt>
      <trkpt lat="31.23946200" lon="35.12898400">
        <ele>487.00000</ele>
        <time>2010-01-01T01:46:52Z</time>
      </trkpt>
      <trkpt lat="31.23239000" lon="35.12723000">
        <ele>473.00000</ele>
        <time>2010-01-01T01:51:41Z</time>
      </trkpt>
      <trkpt lat="31.23079700" lon="35.12687600">
        <ele>485.00000</ele>
        <time>2010-01-01T01:52:46Z</time>
      </trkpt>
      <trkpt lat="31.22978900" lon="35.12626400">
        <ele>487.00000</ele>
        <time>2010-01-01T01:53:32Z</time>
      </trkpt>
      <trkpt lat="31.22938100" lon="35.12614100">
        <ele>489.00000</ele>
        <time>2010-01-01T01:53:49Z</time>
      </trkpt>
      <trkpt lat="31.22604400" lon="35.11681000">
        <ele>490.00000</ele>
        <time>2010-01-01T01:59:35Z</time>
      </trkpt>
      <trkpt lat="31.22326100" lon="35.11812000">
        <ele>495.00000</ele>
        <time>2010-01-01T02:01:35Z</time>
      </trkpt>
      <trkpt lat="31.22106700" lon="35.11893800">
        <ele>491.00000</ele>
        <time>2010-01-01T02:03:07Z</time>
      </trkpt>
      <trkpt lat="31.21740000" lon="35.11923300">
        <ele>487.00000</ele>
        <time>2010-01-01T02:05:34Z</time>
      </trkpt>
      <trkpt lat="31.21481300" lon="35.12116500">
        <ele>491.00000</ele>
        <time>2010-01-01T02:07:37Z</time>
      </trkpt>
      <trkpt lat="31.21386300" lon="35.11946200">
        <ele>484.00000</ele>
        <time>2010-01-01T02:08:47Z</time>
      </trkpt>
      <trkpt lat="31.21232400" lon="35.11884000">
        <ele>475.00000</ele>
        <time>2010-01-01T02:09:52Z</time>
      </trkpt>
      <trkpt lat="31.20890400" lon="35.11853600">
        <ele>485.00000</ele>
        <time>2010-01-01T02:12:09Z</time>
      </trkpt>
      <trkpt lat="31.20821900" lon="35.11668200">
        <ele>489.00000</ele>
        <time>2010-01-01T02:13:18Z</time>
      </trkpt>
      <trkpt lat="31.20750000" lon="35.11559500">
        <ele>484.00000</ele>
        <time>2010-01-01T02:14:05Z</time>
      </trkpt>
      <trkpt lat="31.20656400" lon="35.11484400">
        <ele>477.00000</ele>
        <time>2010-01-01T02:14:51Z</time>
      </trkpt>
      <trkpt lat="31.20546200" lon="35.11688200">
        <ele>469.00000</ele>
        <time>2010-01-01T02:16:13Z</time>
      </trkpt>
      <trkpt lat="31.20449300" lon="35.11811800">
        <ele>463.00000</ele>
        <time>2010-01-01T02:17:11Z</time>
      </trkpt>
      <trkpt lat="31.20364100" lon="35.11833500">
        <ele>462.00000</ele>
        <time>2010-01-01T02:17:46Z</time>
      </trkpt>
      <trkpt lat="31.20263800" lon="35.11815200">
        <ele>462.00000</ele>
        <time>2010-01-01T02:18:26Z</time>
      </trkpt>
      <trkpt lat="31.20197000" lon="35.11853600">
        <ele>462.00000</ele>
        <time>2010-01-01T02:18:56Z</time>
      </trkpt>
      <trkpt lat="31.20103400" lon="35.11933800">
        <ele>459.00000</ele>
        <time>2010-01-01T02:19:43Z</time>
      </trkpt>
      <trkpt lat="31.20041600" lon="35.11997300">
        <ele>456.00000</ele>
        <time>2010-01-01T02:20:15Z</time>
      </trkpt>
      <trkpt lat="31.19943000" lon="35.11953900">
        <ele>453.00000</ele>
        <time>2010-01-01T02:20:58Z</time>
      </trkpt>
      <trkpt lat="31.19828600" lon="35.12002700">
        <ele>452.00000</ele>
        <time>2010-01-01T02:21:46Z</time>
      </trkpt>
      <trkpt lat="31.19706900" lon="35.12031100">
        <ele>448.00000</ele>
        <time>2010-01-01T02:22:36Z</time>
      </trkpt>
      <trkpt lat="31.19678600" lon="35.12128400">
        <ele>450.00000</ele>
        <time>2010-01-01T02:23:11Z</time>
      </trkpt>
      <trkpt lat="31.19621800" lon="35.12201400">
        <ele>444.00000</ele>
        <time>2010-01-01T02:23:45Z</time>
      </trkpt>
      <trkpt lat="31.19573200" lon="35.12335200">
        <ele>443.00000</ele>
        <time>2010-01-01T02:24:35Z</time>
      </trkpt>
      <trkpt lat="31.19427200" lon="35.12375700">
        <ele>436.00000</ele>
        <time>2010-01-01T02:25:35Z</time>
      </trkpt>
      <trkpt lat="31.19342000" lon="35.12250000">
        <ele>439.00000</ele>
        <time>2010-01-01T02:26:30Z</time>
      </trkpt>
      <trkpt lat="31.19244700" lon="35.12164900">
        <ele>441.00000</ele>
        <time>2010-01-01T02:27:18Z</time>
      </trkpt>
      <trkpt lat="31.19147500" lon="35.12063600">
        <ele>446.00000</ele>
        <time>2010-01-01T02:28:11Z</time>
      </trkpt>
      <trkpt lat="31.19062300" lon="35.11966300">
        <ele>451.00000</ele>
        <time>2010-01-01T02:28:58Z</time>
      </trkpt>
      <trkpt lat="31.19009600" lon="35.11917600">
        <ele>451.00000</ele>
        <time>2010-01-01T02:29:25Z</time>
      </trkpt>
      <trkpt lat="31.18940700" lon="35.11917600">
        <ele>454.00000</ele>
        <time>2010-01-01T02:29:53Z</time>
      </trkpt>
      <trkpt lat="31.18892000" lon="35.11812200">
        <ele>454.00000</ele>
        <time>2010-01-01T02:30:34Z</time>
      </trkpt>
      <trkpt lat="31.18806900" lon="35.11775700">
        <ele>458.00000</ele>
        <time>2010-01-01T02:31:10Z</time>
      </trkpt>
      <trkpt lat="31.18729800" lon="35.11775700">
        <ele>457.00000</ele>
        <time>2010-01-01T02:31:41Z</time>
      </trkpt>
      <trkpt lat="31.18673100" lon="35.11678400">
        <ele>459.00000</ele>
        <time>2010-01-01T02:32:21Z</time>
      </trkpt>
      <trkpt lat="31.18634700" lon="35.11619100">
        <ele>461.00000</ele>
        <time>2010-01-01T02:32:47Z</time>
      </trkpt>
      <trkpt lat="31.18607100" lon="35.11602200">
        <ele>461.00000</ele>
        <time>2010-01-01T02:32:59Z</time>
      </trkpt>
      <trkpt lat="31.18607100" lon="35.11561900">
        <ele>461.00000</ele>
        <time>2010-01-01T02:33:13Z</time>
      </trkpt>
      <trkpt lat="31.18567800" lon="35.11519400">
        <ele>462.00000</ele>
        <time>2010-01-01T02:33:34Z</time>
      </trkpt>
      <trkpt lat="31.18578400" lon="35.11492900">
        <ele>463.00000</ele>
        <time>2010-01-01T02:33:44Z</time>
      </trkpt>
      <trkpt lat="31.18590100" lon="35.11466400">
        <ele>463.00000</ele>
        <time>2010-01-01T02:33:55Z</time>
      </trkpt>
      <trkpt lat="31.18607100" lon="35.11450400">
        <ele>464.00000</ele>
        <time>2010-01-01T02:34:03Z</time>
      </trkpt>
      <trkpt lat="31.18640000" lon="35.11432400">
        <ele>467.00000</ele>
        <time>2010-01-01T02:34:18Z</time>
      </trkpt>
      <trkpt lat="31.18646300" lon="35.11405900">
        <ele>467.00000</ele>
        <time>2010-01-01T02:34:27Z</time>
      </trkpt>
      <trkpt lat="31.18643200" lon="35.11336900">
        <ele>467.00000</ele>
        <time>2010-01-01T02:34:51Z</time>
      </trkpt>
      <trkpt lat="31.18631500" lon="35.11277500">
        <ele>468.00000</ele>
        <time>2010-01-01T02:35:12Z</time>
      </trkpt>
      <trkpt lat="31.18608100" lon="35.11242500">
        <ele>469.00000</ele>
        <time>2010-01-01T02:35:27Z</time>
      </trkpt>
      <trkpt lat="31.18565700" lon="35.11216000">
        <ele>472.00000</ele>
        <time>2010-01-01T02:35:46Z</time>
      </trkpt>
      <trkpt lat="31.18522200" lon="35.11194800">
        <ele>473.00000</ele>
        <time>2010-01-01T02:36:05Z</time>
      </trkpt>
      <trkpt lat="31.18502100" lon="35.11161900">
        <ele>473.00000</ele>
        <time>2010-01-01T02:36:19Z</time>
      </trkpt>
      <trkpt lat="31.18479800" lon="35.11120500">
        <ele>474.00000</ele>
        <time>2010-01-01T02:36:36Z</time>
      </trkpt>
      <trkpt lat="31.18442700" lon="35.11083400">
        <ele>475.00000</ele>
        <time>2010-01-01T02:36:55Z</time>
      </trkpt>
      <trkpt lat="31.18432000" lon="35.11026100">
        <ele>475.00000</ele>
        <time>2010-01-01T02:37:15Z</time>
      </trkpt>
      <trkpt lat="31.18404500" lon="35.10999600">
        <ele>476.00000</ele>
        <time>2010-01-01T02:37:30Z</time>
      </trkpt>
      <trkpt lat="31.18357800" lon="35.10996400">
        <ele>479.00000</ele>
        <time>2010-01-01T02:37:48Z</time>
      </trkpt>
      <trkpt lat="31.18309000" lon="35.10982600">
        <ele>485.00000</ele>
        <time>2010-01-01T02:38:08Z</time>
      </trkpt>
      <trkpt lat="31.18283500" lon="35.10941300">
        <ele>482.00000</ele>
        <time>2010-01-01T02:38:26Z</time>
      </trkpt>
      <trkpt lat="31.18235800" lon="35.10920000">
        <ele>483.00000</ele>
        <time>2010-01-01T02:38:46Z</time>
      </trkpt>
      <trkpt lat="31.18205000" lon="35.10962500">
        <ele>486.00000</ele>
        <time>2010-01-01T02:39:05Z</time>
      </trkpt>
      <trkpt lat="31.18137100" lon="35.10923200">
        <ele>488.00000</ele>
        <time>2010-01-01T02:39:36Z</time>
      </trkpt>
      <trkpt lat="31.18104300" lon="35.10924300">
        <ele>490.00000</ele>
        <time>2010-01-01T02:39:49Z</time>
      </trkpt>
      <trkpt lat="31.18074500" lon="35.10899900">
        <ele>491.00000</ele>
        <time>2010-01-01T02:40:03Z</time>
      </trkpt>
      <trkpt lat="31.18028900" lon="35.10903100">
        <ele>494.00000</ele>
        <time>2010-01-01T02:40:22Z</time>
      </trkpt>
      <trkpt lat="31.17991800" lon="35.10914800">
        <ele>495.00000</ele>
        <time>2010-01-01T02:40:37Z</time>
      </trkpt>
      <trkpt lat="31.17964200" lon="35.10923200">
        <ele>497.00000</ele>
        <time>2010-01-01T02:40:49Z</time>
      </trkpt>
      <trkpt lat="31.17911200" lon="35.10853200">
        <ele>496.00000</ele>
        <time>2010-01-01T02:41:21Z</time>
      </trkpt>
      <trkpt lat="31.17868800" lon="35.10835200">
        <ele>499.00000</ele>
        <time>2010-01-01T02:41:39Z</time>
      </trkpt>
      <trkpt lat="31.17827400" lon="35.10854300">
        <ele>501.00000</ele>
        <time>2010-01-01T02:41:56Z</time>
      </trkpt>
      <trkpt lat="31.17813600" lon="35.10858500">
        <ele>502.00000</ele>
        <time>2010-01-01T02:42:02Z</time>
      </trkpt>
      <trkpt lat="31.17781800" lon="35.10840500">
        <ele>502.00000</ele>
        <time>2010-01-01T02:42:16Z</time>
      </trkpt>
      <trkpt lat="31.17737200" lon="35.10784300">
        <ele>510.00000</ele>
        <time>2010-01-01T02:42:43Z</time>
      </trkpt>
      <trkpt lat="31.17736300" lon="35.10572800">
        <ele>509.00000</ele>
        <time>2010-01-01T02:43:55Z</time>
      </trkpt>
      <trkpt lat="31.17726000" lon="35.10483300">
        <ele>507.00000</ele>
        <time>2010-01-01T02:44:26Z</time>
      </trkpt>
      <trkpt lat="31.17741400" lon="35.10403900">
        <ele>504.00000</ele>
        <time>2010-01-01T02:44:54Z</time>
      </trkpt>
      <trkpt lat="31.17690200" lon="35.10383400">
        <ele>506.00000</ele>
        <time>2010-01-01T02:45:15Z</time>
      </trkpt>
      <trkpt lat="31.17587800" lon="35.10391100">
        <ele>509.00000</ele>
        <time>2010-01-01T02:45:57Z</time>
      </trkpt>
      <trkpt lat="31.17531500" lon="35.10419300">
        <ele>512.00000</ele>
        <time>2010-01-01T02:46:21Z</time>
      </trkpt>
      <trkpt lat="31.17454700" lon="35.10460200">
        <ele>513.00000</ele>
        <time>2010-01-01T02:46:55Z</time>
      </trkpt>
      <trkpt lat="31.17403500" lon="35.10549800">
        <ele>519.00000</ele>
        <time>2010-01-01T02:47:32Z</time>
      </trkpt>
      <trkpt lat="31.17326200" lon="35.10643200">
        <ele>522.00000</ele>
        <time>2010-01-01T02:48:16Z</time>
      </trkpt>
      <trkpt lat="31.17277000" lon="35.10666200">
        <ele>518.00000</ele>
        <time>2010-01-01T02:48:37Z</time>
      </trkpt>
      <trkpt lat="31.17231000" lon="35.10706000">
        <ele>521.00000</ele>
        <time>2010-01-01T02:49:00Z</time>
      </trkpt>
      <trkpt lat="31.17187000" lon="35.10764600">
        <ele>522.00000</ele>
        <time>2010-01-01T02:49:27Z</time>
      </trkpt>
      <trkpt lat="31.17157700" lon="35.10796000">
        <ele>524.00000</ele>
        <time>2010-01-01T02:49:43Z</time>
      </trkpt>
      <trkpt lat="31.17127300" lon="35.10864100">
        <ele>525.00000</ele>
        <time>2010-01-01T02:50:09Z</time>
      </trkpt>
      <trkpt lat="31.17110600" lon="35.10935300">
        <ele>529.00000</ele>
        <time>2010-01-01T02:50:35Z</time>
      </trkpt>
      <trkpt lat="31.17065500" lon="35.10995000">
        <ele>530.00000</ele>
        <time>2010-01-01T02:51:02Z</time>
      </trkpt>
      <trkpt lat="31.16970300" lon="35.11065100">
        <ele>530.00000</ele>
        <time>2010-01-01T02:51:47Z</time>
      </trkpt>
      <trkpt lat="31.16909600" lon="35.11102800">
        <ele>532.00000</ele>
        <time>2010-01-01T02:52:14Z</time>
      </trkpt>
      <trkpt lat="31.16804600" lon="35.11133700">
        <ele>531.00000</ele>
        <time>2010-01-01T02:52:58Z</time>
      </trkpt>
      <trkpt lat="31.16693000" lon="35.11196200">
        <ele>540.00000</ele>
        <time>2010-01-01T02:53:47Z</time>
      </trkpt>
      <trkpt lat="31.16668000" lon="35.11204600">
        <ele>539.00000</ele>
        <time>2010-01-01T02:53:58Z</time>
      </trkpt>
      <trkpt lat="31.16537700" lon="35.11160800">
        <ele>537.00000</ele>
        <time>2010-01-01T02:54:52Z</time>
      </trkpt>
      <trkpt lat="31.16430300" lon="35.11160800">
        <ele>542.00000</ele>
        <time>2010-01-01T02:55:35Z</time>
      </trkpt>
      <trkpt lat="31.16386500" lon="35.11188900">
        <ele>543.00000</ele>
        <time>2010-01-01T02:55:55Z</time>
      </trkpt>
      <trkpt lat="31.16334400" lon="35.11255700">
        <ele>544.00000</ele>
        <time>2010-01-01T02:56:26Z</time>
      </trkpt>
      <trkpt lat="31.16293700" lon="35.11293200">
        <ele>547.00000</ele>
        <time>2010-01-01T02:56:47Z</time>
      </trkpt>
      <trkpt lat="31.16242600" lon="35.11282800">
        <ele>551.00000</ele>
        <time>2010-01-01T02:57:07Z</time>
      </trkpt>
      <trkpt lat="31.16180000" lon="35.11259800">
        <ele>554.00000</ele>
        <time>2010-01-01T02:57:34Z</time>
      </trkpt>
      <trkpt lat="31.16127900" lon="35.11254600">
        <ele>556.00000</ele>
        <time>2010-01-01T02:57:55Z</time>
      </trkpt>
      <trkpt lat="31.16133100" lon="35.11274400">
        <ele>553.00000</ele>
        <time>2010-01-01T02:58:02Z</time>
      </trkpt>
      <trkpt lat="31.16165400" lon="35.11298400">
        <ele>552.00000</ele>
        <time>2010-01-01T02:58:17Z</time>
      </trkpt>
      <trkpt lat="31.16206100" lon="35.11348500">
        <ele>556.00000</ele>
        <time>2010-01-01T02:58:41Z</time>
      </trkpt>
      <trkpt lat="31.16231100" lon="35.11397500">
        <ele>559.00000</ele>
        <time>2010-01-01T02:59:00Z</time>
      </trkpt>
      <trkpt lat="31.16262400" lon="35.11462100">
        <ele>563.00000</ele>
        <time>2010-01-01T02:59:26Z</time>
      </trkpt>
      <trkpt lat="31.16160400" lon="35.11456900">
        <ele>568.00000</ele>
        <time>2010-01-01T03:00:07Z</time>
      </trkpt>
      <trkpt lat="31.16073100" lon="35.11469000">
        <ele>581.00000</ele>
        <time>2010-01-01T03:00:42Z</time>
      </trkpt>
      <trkpt lat="31.16022300" lon="35.11475100">
        <ele>590.00000</ele>
        <time>2010-01-01T03:01:02Z</time>
      </trkpt>
      <trkpt lat="31.15943200" lon="35.11440600">
        <ele>597.00000</ele>
        <time>2010-01-01T03:01:36Z</time>
      </trkpt>
      <trkpt lat="31.15866000" lon="35.11406100">
        <ele>600.00000</ele>
        <time>2010-01-01T03:02:09Z</time>
      </trkpt>
      <trkpt lat="31.15782800" lon="35.11400000">
        <ele>608.00000</ele>
        <time>2010-01-01T03:02:42Z</time>
      </trkpt>
      <trkpt lat="31.15693400" lon="35.11379700">
        <ele>608.00000</ele>
        <time>2010-01-01T03:03:19Z</time>
      </trkpt>
      <trkpt lat="31.15594000" lon="35.11357400">
        <ele>608.00000</ele>
        <time>2010-01-01T03:03:59Z</time>
      </trkpt>
      <trkpt lat="31.15522900" lon="35.11369600">
        <ele>610.00000</ele>
        <time>2010-01-01T03:04:28Z</time>
      </trkpt>
      <trkpt lat="31.15460000" lon="35.11410200">
        <ele>600.00000</ele>
        <time>2010-01-01T03:04:57Z</time>
      </trkpt>
      <trkpt lat="31.15384800" lon="35.11426400">
        <ele>593.00000</ele>
        <time>2010-01-01T03:05:28Z</time>
      </trkpt>
      <trkpt lat="31.15336100" lon="35.11391900">
        <ele>599.00000</ele>
        <time>2010-01-01T03:05:50Z</time>
      </trkpt>
      <trkpt lat="31.15254900" lon="35.11312700">
        <ele>612.00000</ele>
        <time>2010-01-01T03:06:33Z</time>
      </trkpt>
      <trkpt lat="31.15244800" lon="35.11251800">
        <ele>612.00000</ele>
        <time>2010-01-01T03:06:54Z</time>
      </trkpt>
      <trkpt lat="31.15187900" lon="35.11199000">
        <ele>611.00000</ele>
        <time>2010-01-01T03:07:23Z</time>
      </trkpt>
      <trkpt lat="31.15135100" lon="35.11152300">
        <ele>602.00000</ele>
        <time>2010-01-01T03:07:50Z</time>
      </trkpt>
      <trkpt lat="31.15070200" lon="35.11119800">
        <ele>600.00000</ele>
        <time>2010-01-01T03:08:18Z</time>
      </trkpt>
      <trkpt lat="31.15035700" lon="35.11111700">
        <ele>598.00000</ele>
        <time>2010-01-01T03:08:32Z</time>
      </trkpt>
      <trkpt lat="31.14978800" lon="35.11024400">
        <ele>598.00000</ele>
        <time>2010-01-01T03:09:10Z</time>
      </trkpt>
      <trkpt lat="31.14922000" lon="35.10977700">
        <ele>599.00000</ele>
        <time>2010-01-01T03:09:37Z</time>
      </trkpt>
      <trkpt lat="31.14861100" lon="35.10933100">
        <ele>599.00000</ele>
        <time>2010-01-01T03:10:06Z</time>
      </trkpt>
      <trkpt lat="31.14749400" lon="35.10900600">
        <ele>610.00000</ele>
        <time>2010-01-01T03:10:52Z</time>
      </trkpt>
      <trkpt lat="31.14690500" lon="35.10922900">
        <ele>613.00000</ele>
        <time>2010-01-01T03:11:17Z</time>
      </trkpt>
      <trkpt lat="31.14633700" lon="35.10943200">
        <ele>610.00000</ele>
        <time>2010-01-01T03:11:41Z</time>
      </trkpt>
      <trkpt lat="31.14507800" lon="35.10918800">
        <ele>625.00000</ele>
        <time>2010-01-01T03:12:32Z</time>
      </trkpt>
      <trkpt lat="31.14390100" lon="35.10937100">
        <ele>625.00000</ele>
        <time>2010-01-01T03:13:19Z</time>
      </trkpt>
      <trkpt lat="31.14327100" lon="35.10939100">
        <ele>623.00000</ele>
        <time>2010-01-01T03:13:45Z</time>
      </trkpt>
      <trkpt lat="31.14270300" lon="35.11000100">
        <ele>623.00000</ele>
        <time>2010-01-01T03:14:15Z</time>
      </trkpt>
      <trkpt lat="31.14227600" lon="35.11071100">
        <ele>620.00000</ele>
        <time>2010-01-01T03:14:45Z</time>
      </trkpt>
      <trkpt lat="31.14191100" lon="35.11081300">
        <ele>619.00000</ele>
        <time>2010-01-01T03:15:00Z</time>
      </trkpt>
      <trkpt lat="31.14128200" lon="35.11081300">
        <ele>620.00000</ele>
        <time>2010-01-01T03:15:25Z</time>
      </trkpt>
      <trkpt lat="31.14044900" lon="35.11032500">
        <ele>619.00000</ele>
        <time>2010-01-01T03:16:03Z</time>
      </trkpt>
      <trkpt lat="31.13980000" lon="35.10929000">
        <ele>618.00000</ele>
        <time>2010-01-01T03:16:47Z</time>
      </trkpt>
      <trkpt lat="31.13949500" lon="35.10831600">
        <ele>624.00000</ele>
        <time>2010-01-01T03:17:22Z</time>
      </trkpt>
      <trkpt lat="31.13917000" lon="35.10748300">
        <ele>628.00000</ele>
        <time>2010-01-01T03:17:54Z</time>
      </trkpt>
      <trkpt lat="31.13898700" lon="35.10673200">
        <ele>628.00000</ele>
        <time>2010-01-01T03:18:20Z</time>
      </trkpt>
      <trkpt lat="31.13839500" lon="35.10668000">
        <ele>629.00000</ele>
        <time>2010-01-01T03:18:44Z</time>
      </trkpt>
      <trkpt lat="31.13788000" lon="35.10640700">
        <ele>637.00000</ele>
        <time>2010-01-01T03:19:07Z</time>
      </trkpt>
      <trkpt lat="31.13736500" lon="35.10582700">
        <ele>631.00000</ele>
        <time>2010-01-01T03:19:35Z</time>
      </trkpt>
      <trkpt lat="31.13704300" lon="35.10537600">
        <ele>630.00000</ele>
        <time>2010-01-01T03:19:55Z</time>
      </trkpt>
      <trkpt lat="31.13680100" lon="35.10463500">
        <ele>631.00000</ele>
        <time>2010-01-01T03:20:23Z</time>
      </trkpt>
      <trkpt lat="31.13638200" lon="35.10365300">
        <ele>630.00000</ele>
        <time>2010-01-01T03:21:00Z</time>
      </trkpt>
      <trkpt lat="31.13622100" lon="35.10278300">
        <ele>625.00000</ele>
        <time>2010-01-01T03:21:31Z</time>
      </trkpt>
      <trkpt lat="31.13620500" lon="35.10202600">
        <ele>624.00000</ele>
        <time>2010-01-01T03:21:57Z</time>
      </trkpt>
      <trkpt lat="31.13573800" lon="35.10128500">
        <ele>620.00000</ele>
        <time>2010-01-01T03:22:28Z</time>
      </trkpt>
      <trkpt lat="31.13491700" lon="35.10081800">
        <ele>620.00000</ele>
        <time>2010-01-01T03:23:05Z</time>
      </trkpt>
      <trkpt lat="31.13354800" lon="35.10014200">
        <ele>611.00000</ele>
        <time>2010-01-01T03:24:04Z</time>
      </trkpt>
      <trkpt lat="31.13217500" lon="35.09931400">
        <ele>613.00000</ele>
        <time>2010-01-01T03:25:06Z</time>
      </trkpt>
      <trkpt lat="31.13139700" lon="35.09861300">
        <ele>615.00000</ele>
        <time>2010-01-01T03:25:45Z</time>
      </trkpt>
      <trkpt lat="31.13073400" lon="35.09797500">
        <ele>624.00000</ele>
        <time>2010-01-01T03:26:20Z</time>
      </trkpt>
      <trkpt lat="31.13012200" lon="35.09759300">
        <ele>628.00000</ele>
        <time>2010-01-01T03:26:48Z</time>
      </trkpt>
      <trkpt lat="31.12995600" lon="35.09696800">
        <ele>626.00000</ele>
        <time>2010-01-01T03:27:10Z</time>
      </trkpt>
      <trkpt lat="31.12989200" lon="35.09636800">
        <ele>627.00000</ele>
        <time>2010-01-01T03:27:31Z</time>
      </trkpt>
      <trkpt lat="31.12970100" lon="35.09522100">
        <ele>630.00000</ele>
        <time>2010-01-01T03:28:11Z</time>
      </trkpt>
      <trkpt lat="31.12940700" lon="35.09454500">
        <ele>634.00000</ele>
        <time>2010-01-01T03:28:37Z</time>
      </trkpt>
      <trkpt lat="31.12898700" lon="35.09335900">
        <ele>642.00000</ele>
        <time>2010-01-01T03:29:21Z</time>
      </trkpt>
      <trkpt lat="31.12842500" lon="35.09184100">
        <ele>644.00000</ele>
        <time>2010-01-01T03:30:17Z</time>
      </trkpt>
      <trkpt lat="31.12841300" lon="35.09101200">
        <ele>641.00000</ele>
        <time>2010-01-01T03:30:46Z</time>
      </trkpt>
      <trkpt lat="31.12840000" lon="35.09009400">
        <ele>638.00000</ele>
        <time>2010-01-01T03:31:17Z</time>
      </trkpt>
      <trkpt lat="31.12803000" lon="35.08971100">
        <ele>630.00000</ele>
        <time>2010-01-01T03:31:37Z</time>
      </trkpt>
      <trkpt lat="31.12760900" lon="35.08941800">
        <ele>631.00000</ele>
        <time>2010-01-01T03:31:57Z</time>
      </trkpt>
      <trkpt lat="31.12746900" lon="35.08880600">
        <ele>631.00000</ele>
        <time>2010-01-01T03:32:18Z</time>
      </trkpt>
      <trkpt lat="31.12744300" lon="35.08827000">
        <ele>627.00000</ele>
        <time>2010-01-01T03:32:37Z</time>
      </trkpt>
      <trkpt lat="31.12754500" lon="35.08759400">
        <ele>620.00000</ele>
        <time>2010-01-01T03:33:00Z</time>
      </trkpt>
      <trkpt lat="31.12745600" lon="35.08688000">
        <ele>617.00000</ele>
        <time>2010-01-01T03:33:25Z</time>
      </trkpt>
      <trkpt lat="31.12748200" lon="35.08601300">
        <ele>619.00000</ele>
        <time>2010-01-01T03:33:55Z</time>
      </trkpt>
      <trkpt lat="31.12723900" lon="35.08561800">
        <ele>619.00000</ele>
        <time>2010-01-01T03:34:11Z</time>
      </trkpt>
      <trkpt lat="31.12676700" lon="35.08557900">
        <ele>618.00000</ele>
        <time>2010-01-01T03:34:30Z</time>
      </trkpt>
      <trkpt lat="31.12431900" lon="35.08199600">
        <ele>619.00000</ele>
        <time>2010-01-01T03:37:07Z</time>
      </trkpt>
      <trkpt lat="31.12342600" lon="35.08073300">
        <ele>612.00000</ele>
        <time>2010-01-01T03:38:04Z</time>
      </trkpt>
      <trkpt lat="31.12176800" lon="35.07737900">
        <ele>604.00000</ele>
        <time>2010-01-01T03:40:16Z</time>
      </trkpt>
      <trkpt lat="31.12099000" lon="35.07567000">
        <ele>606.00000</ele>
        <time>2010-01-01T03:41:23Z</time>
      </trkpt>
      <trkpt lat="31.11993200" lon="35.07320900">
        <ele>607.00000</ele>
        <time>2010-01-01T03:42:57Z</time>
      </trkpt>
      <trkpt lat="31.11914000" lon="35.07250300">
        <ele>605.00000</ele>
        <time>2010-01-01T03:43:37Z</time>
      </trkpt>
      <trkpt lat="31.11909100" lon="35.07142400">
        <ele>610.00000</ele>
        <time>2010-01-01T03:44:14Z</time>
      </trkpt>
      <trkpt lat="31.11909100" lon="35.07041900">
        <ele>615.00000</ele>
        <time>2010-01-01T03:44:48Z</time>
      </trkpt>
      <trkpt lat="31.11921400" lon="35.06921800">
        <ele>624.00000</ele>
        <time>2010-01-01T03:45:30Z</time>
      </trkpt>
      <trkpt lat="31.11857600" lon="35.06794400">
        <ele>631.00000</ele>
        <time>2010-01-01T03:46:20Z</time>
      </trkpt>
      <trkpt lat="31.11801300" lon="35.06718500">
        <ele>637.00000</ele>
        <time>2010-01-01T03:46:55Z</time>
      </trkpt>
      <trkpt lat="31.11715500" lon="35.06669400">
        <ele>643.00000</ele>
        <time>2010-01-01T03:47:33Z</time>
      </trkpt>
      <trkpt lat="31.11543900" lon="35.06382700">
        <ele>652.00000</ele>
        <time>2010-01-01T03:49:33Z</time>
      </trkpt>
      <trkpt lat="31.11431200" lon="35.06343500">
        <ele>649.00000</ele>
        <time>2010-01-01T03:50:20Z</time>
      </trkpt>
      <trkpt lat="31.11343000" lon="35.06331200">
        <ele>644.00000</ele>
        <time>2010-01-01T03:50:56Z</time>
      </trkpt>
      <trkpt lat="31.11301300" lon="35.06267500">
        <ele>640.00000</ele>
        <time>2010-01-01T03:51:23Z</time>
      </trkpt>
      <trkpt lat="31.11274400" lon="35.06152300">
        <ele>634.00000</ele>
        <time>2010-01-01T03:52:04Z</time>
      </trkpt>
      <trkpt lat="31.11178800" lon="35.06002800">
        <ele>638.00000</ele>
        <time>2010-01-01T03:53:08Z</time>
      </trkpt>
      <trkpt lat="31.11164100" lon="35.05872900">
        <ele>648.00000</ele>
        <time>2010-01-01T03:53:53Z</time>
      </trkpt>
      <trkpt lat="31.11188600" lon="35.05752900">
        <ele>653.00000</ele>
        <time>2010-01-01T03:54:35Z</time>
      </trkpt>
      <trkpt lat="31.11176300" lon="35.05596000">
        <ele>658.00000</ele>
        <time>2010-01-01T03:55:29Z</time>
      </trkpt>
      <trkpt lat="31.11068500" lon="35.05547000">
        <ele>659.00000</ele>
        <time>2010-01-01T03:56:15Z</time>
      </trkpt>
      <trkpt lat="31.10914100" lon="35.05620500">
        <ele>661.00000</ele>
        <time>2010-01-01T03:57:22Z</time>
      </trkpt>
      <trkpt lat="31.10752400" lon="35.05713700">
        <ele>649.00000</ele>
        <time>2010-01-01T03:58:34Z</time>
      </trkpt>
      <trkpt lat="31.10563700" lon="35.05740600">
        <ele>661.00000</ele>
        <time>2010-01-01T03:59:50Z</time>
      </trkpt>
      <trkpt lat="31.10382300" lon="35.05667100">
        <ele>655.00000</ele>
        <time>2010-01-01T04:01:07Z</time>
      </trkpt>
      <trkpt lat="31.10254900" lon="35.05483300">
        <ele>653.00000</ele>
        <time>2010-01-01T04:02:28Z</time>
      </trkpt>
      <trkpt lat="31.10213200" lon="35.05235800">
        <ele>661.00000</ele>
        <time>2010-01-01T04:03:55Z</time>
      </trkpt>
      <trkpt lat="31.10196000" lon="35.04995600">
        <ele>666.00000</ele>
        <time>2010-01-01T04:05:17Z</time>
      </trkpt>
      <trkpt lat="31.10152000" lon="35.04865700">
        <ele>656.00000</ele>
        <time>2010-01-01T04:06:05Z</time>
      </trkpt>
      <trkpt lat="31.10174000" lon="35.04569200">
        <ele>665.00000</ele>
        <time>2010-01-01T04:07:47Z</time>
      </trkpt>
      <trkpt lat="31.10093100" lon="35.04481000">
        <ele>662.00000</ele>
        <time>2010-01-01T04:08:32Z</time>
      </trkpt>
      <trkpt lat="31.09936300" lon="35.04441700">
        <ele>649.00000</ele>
        <time>2010-01-01T04:09:36Z</time>
      </trkpt>
      <trkpt lat="31.09791700" lon="35.04395200">
        <ele>642.00000</ele>
        <time>2010-01-01T04:10:36Z</time>
      </trkpt>
      <trkpt lat="31.09691200" lon="35.04326500">
        <ele>638.00000</ele>
        <time>2010-01-01T04:11:22Z</time>
      </trkpt>
      <trkpt lat="31.09612800" lon="35.04311800">
        <ele>642.00000</ele>
        <time>2010-01-01T04:11:54Z</time>
      </trkpt>
      <trkpt lat="31.09522100" lon="35.04272700">
        <ele>633.00000</ele>
        <time>2010-01-01T04:12:33Z</time>
      </trkpt>
      <trkpt lat="31.09421600" lon="35.04182000">
        <ele>624.00000</ele>
        <time>2010-01-01T04:13:24Z</time>
      </trkpt>
      <trkpt lat="31.09362800" lon="35.04101100">
        <ele>613.00000</ele>
        <time>2010-01-01T04:14:00Z</time>
      </trkpt>
      <trkpt lat="31.09294200" lon="35.04003100">
        <ele>618.00000</ele>
        <time>2010-01-01T04:14:44Z</time>
      </trkpt>
      <trkpt lat="31.09245200" lon="35.03883000">
        <ele>642.00000</ele>
        <time>2010-01-01T04:15:29Z</time>
      </trkpt>
      <trkpt lat="31.09193700" lon="35.03831500">
        <ele>646.00000</ele>
        <time>2010-01-01T04:15:56Z</time>
      </trkpt>
      <trkpt lat="31.09088300" lon="35.03907500">
        <ele>634.00000</ele>
        <time>2010-01-01T04:16:46Z</time>
      </trkpt>
      <trkpt lat="31.08953500" lon="35.03990800">
        <ele>615.00000</ele>
        <time>2010-01-01T04:17:47Z</time>
      </trkpt>
      <trkpt lat="31.08833500" lon="35.04034900">
        <ele>605.00000</ele>
        <time>2010-01-01T04:18:37Z</time>
      </trkpt>
      <trkpt lat="31.08777100" lon="35.04186900">
        <ele>596.00000</ele>
        <time>2010-01-01T04:19:34Z</time>
      </trkpt>
      <trkpt lat="31.08647200" lon="35.04390300">
        <ele>572.00000</ele>
        <time>2010-01-01T04:21:01Z</time>
      </trkpt>
      <trkpt lat="31.08578000" lon="35.04401800">
        <ele>565.00000</ele>
        <time>2010-01-01T04:21:29Z</time>
      </trkpt>
      <trkpt lat="31.08527100" lon="35.04391000">
        <ele>561.00000</ele>
        <time>2010-01-01T04:21:50Z</time>
      </trkpt>
      <trkpt lat="31.08457700" lon="35.04402400">
        <ele>564.00000</ele>
        <time>2010-01-01T04:22:18Z</time>
      </trkpt>
      <trkpt lat="31.08397200" lon="35.04417700">
        <ele>562.00000</ele>
        <time>2010-01-01T04:22:43Z</time>
      </trkpt>
      <trkpt lat="31.08345600" lon="35.04409400">
        <ele>557.00000</ele>
        <time>2010-01-01T04:23:03Z</time>
      </trkpt>
      <trkpt lat="31.08304900" lon="35.04374500">
        <ele>557.00000</ele>
        <time>2010-01-01T04:23:24Z</time>
      </trkpt>
      <trkpt lat="31.08267400" lon="35.04398000">
        <ele>553.00000</ele>
        <time>2010-01-01T04:23:41Z</time>
      </trkpt>
      <trkpt lat="31.08179500" lon="35.04386500">
        <ele>551.00000</ele>
        <time>2010-01-01T04:24:16Z</time>
      </trkpt>
      <trkpt lat="31.08049700" lon="35.04235000">
        <ele>554.00000</ele>
        <time>2010-01-01T04:25:30Z</time>
      </trkpt>
      <trkpt lat="31.08021700" lon="35.04196900">
        <ele>556.00000</ele>
        <time>2010-01-01T04:25:47Z</time>
      </trkpt>
      <trkpt lat="31.08020400" lon="35.04127500">
        <ele>556.00000</ele>
        <time>2010-01-01T04:26:11Z</time>
      </trkpt>
      <trkpt lat="31.07679900" lon="35.04136400">
        <ele>565.00000</ele>
        <time>2010-01-01T04:28:27Z</time>
      </trkpt>
      <trkpt lat="31.07658900" lon="35.03130400">
        <ele>560.00000</ele>
        <time>2010-01-01T04:34:12Z</time>
      </trkpt>
      <trkpt lat="31.06744000" lon="35.03178700">
        <ele>551.00000</ele>
        <time>2010-01-01T04:40:19Z</time>
      </trkpt>
      <trkpt lat="31.06728900" lon="35.02922000">
        <ele>549.00000</ele>
        <time>2010-01-01T04:41:47Z</time>
      </trkpt>
      <trkpt lat="31.06710800" lon="35.02695600">
        <ele>544.00000</ele>
        <time>2010-01-01T04:43:05Z</time>
      </trkpt>
      <trkpt lat="31.06632200" lon="35.02496300">
        <ele>539.00000</ele>
        <time>2010-01-01T04:44:20Z</time>
      </trkpt>
      <trkpt lat="31.06493300" lon="35.02236600">
        <ele>539.00000</ele>
        <time>2010-01-01T04:46:05Z</time>
      </trkpt>
      <trkpt lat="31.06433000" lon="35.02173200">
        <ele>541.00000</ele>
        <time>2010-01-01T04:46:37Z</time>
      </trkpt>
      <trkpt lat="31.06297100" lon="35.02058500">
        <ele>543.00000</ele>
        <time>2010-01-01T04:47:45Z</time>
      </trkpt>
      <trkpt lat="31.06194400" lon="35.01943700">
        <ele>543.00000</ele>
        <time>2010-01-01T04:48:41Z</time>
      </trkpt>
      <trkpt lat="31.06364600" lon="35.01551700">
        <ele>536.00000</ele>
        <time>2010-01-01T04:51:12Z</time>
      </trkpt>
      <trkpt lat="31.06796200" lon="35.00600800">
        <ele>529.00000</ele>
        <time>2010-01-01T04:57:21Z</time>
      </trkpt>
      <trkpt lat="31.05304000" lon="34.99649900">
        <ele>539.00000</ele>
        <time>2010-01-01T05:08:42Z</time>
      </trkpt>
      <trkpt lat="31.05223500" lon="34.99723000">
        <ele>536.00000</ele>
        <time>2010-01-01T05:09:23Z</time>
      </trkpt>
      <trkpt lat="31.02510000" lon="34.96870800">
        <ele>565.00000</ele>
        <time>2010-01-01T05:33:44Z</time>
      </trkpt>
      <trkpt lat="31.02209200" lon="34.96654500">
        <ele>555.00000</ele>
        <time>2010-01-01T05:36:06Z</time>
      </trkpt>
      <trkpt lat="31.01961100" lon="34.96413800">
        <ele>542.00000</ele>
        <time>2010-01-01T05:38:15Z</time>
      </trkpt>
      <trkpt lat="31.01769800" lon="34.96247900">
        <ele>534.00000</ele>
        <time>2010-01-01T05:39:50Z</time>
      </trkpt>
      <trkpt lat="31.01316900" lon="34.95898100">
        <ele>528.00000</ele>
        <time>2010-01-01T05:43:28Z</time>
      </trkpt>
      <trkpt lat="31.00898300" lon="34.95410800">
        <ele>513.00000</ele>
        <time>2010-01-01T05:47:24Z</time>
      </trkpt>
      <trkpt lat="31.00052300" lon="34.94493000">
        <ele>506.00000</ele>
        <time>2010-01-01T05:55:07Z</time>
      </trkpt>
      <trkpt lat="30.99805400" lon="34.94191400">
        <ele>511.00000</ele>
        <time>2010-01-01T05:57:30Z</time>
      </trkpt>
      <trkpt lat="30.99637600" lon="34.92571900">
        <ele>478.00000</ele>
        <time>2010-01-01T06:06:50Z</time>
      </trkpt>
      <trkpt lat="30.99570400" lon="34.92437600">
        <ele>475.00000</ele>
        <time>2010-01-01T06:07:43Z</time>
      </trkpt>
      <trkpt lat="30.99503300" lon="34.92001300">
        <ele>473.00000</ele>
        <time>2010-01-01T06:10:15Z</time>
      </trkpt>
      <trkpt lat="30.99335500" lon="34.91665600">
        <ele>471.00000</ele>
        <time>2010-01-01T06:12:29Z</time>
      </trkpt>
      <trkpt lat="30.99075300" lon="34.91145400">
        <ele>462.00000</ele>
        <time>2010-01-01T06:15:55Z</time>
      </trkpt>
      <trkpt lat="30.98915900" lon="34.91111800">
        <ele>465.00000</ele>
        <time>2010-01-01T06:17:00Z</time>
      </trkpt>
      <trkpt lat="30.98706100" lon="34.90977500">
        <ele>458.00000</ele>
        <time>2010-01-01T06:18:36Z</time>
      </trkpt>
      <trkpt lat="30.98320100" lon="34.90532800">
        <ele>467.00000</ele>
        <time>2010-01-01T06:22:13Z</time>
      </trkpt>
      <trkpt lat="30.97942500" lon="34.90214000">
        <ele>470.00000</ele>
        <time>2010-01-01T06:25:20Z</time>
      </trkpt>
      <trkpt lat="30.97371900" lon="34.89769200">
        <ele>466.00000</ele>
        <time>2010-01-01T06:29:54Z</time>
      </trkpt>
      <trkpt lat="30.97111800" lon="34.89727200">
        <ele>470.00000</ele>
        <time>2010-01-01T06:31:40Z</time>
      </trkpt>
      <trkpt lat="30.96851700" lon="34.89744000">
        <ele>473.00000</ele>
        <time>2010-01-01T06:33:24Z</time>
      </trkpt>
      <trkpt lat="30.96138400" lon="34.89282500">
        <ele>477.00000</ele>
        <time>2010-01-01T06:38:50Z</time>
      </trkpt>
      <trkpt lat="30.95551000" lon="34.88921700">
        <ele>481.00000</ele>
        <time>2010-01-01T06:43:16Z</time>
      </trkpt>
      <trkpt lat="30.95056000" lon="34.88619600">
        <ele>493.00000</ele>
        <time>2010-01-01T06:47:00Z</time>
      </trkpt>
      <trkpt lat="30.94686700" lon="34.88166500">
        <ele>502.00000</ele>
        <time>2010-01-01T06:50:34Z</time>
      </trkpt>
      <trkpt lat="30.94275600" lon="34.87738500">
        <ele>512.00000</ele>
        <time>2010-01-01T06:54:15Z</time>
      </trkpt>
      <trkpt lat="30.93898000" lon="34.87293800">
        <ele>517.00000</ele>
        <time>2010-01-01T06:57:50Z</time>
      </trkpt>
      <trkpt lat="30.93629500" lon="34.86857500">
        <ele>529.00000</ele>
        <time>2010-01-01T07:00:54Z</time>
      </trkpt>
      <trkpt lat="30.93335800" lon="34.86404300">
        <ele>533.00000</ele>
        <time>2010-01-01T07:04:09Z</time>
      </trkpt>
      <trkpt lat="30.93058900" lon="34.86152600">
        <ele>554.00000</ele>
        <time>2010-01-01T07:06:30Z</time>
      </trkpt>
      <trkpt lat="30.92714800" lon="34.85699500">
        <ele>555.00000</ele>
        <time>2010-01-01T07:09:58Z</time>
      </trkpt>
      <trkpt lat="30.92203000" lon="34.85145700">
        <ele>542.00000</ele>
        <time>2010-01-01T07:14:37Z</time>
      </trkpt>
      <trkpt lat="30.91816900" lon="34.84768100">
        <ele>538.00000</ele>
        <time>2010-01-01T07:17:59Z</time>
      </trkpt>
      <trkpt lat="30.91422600" lon="34.84541500">
        <ele>537.00000</ele>
        <time>2010-01-01T07:20:55Z</time>
      </trkpt>
      <trkpt lat="30.90994600" lon="34.84348500">
        <ele>534.00000</ele>
        <time>2010-01-01T07:23:59Z</time>
      </trkpt>
      <trkpt lat="30.90633800" lon="34.84038000">
        <ele>526.00000</ele>
        <time>2010-01-01T07:26:58Z</time>
      </trkpt>
      <trkpt lat="30.90365300" lon="34.83618500">
        <ele>532.00000</ele>
        <time>2010-01-01T07:29:58Z</time>
      </trkpt>
      <trkpt lat="30.90147100" lon="34.83148600">
        <ele>522.00000</ele>
        <time>2010-01-01T07:33:01Z</time>
      </trkpt>
      <trkpt lat="30.89836600" lon="34.82661900">
        <ele>522.00000</ele>
        <time>2010-01-01T07:36:30Z</time>
      </trkpt>
      <trkpt lat="30.89475800" lon="34.82259100">
        <ele>510.00000</ele>
        <time>2010-01-01T07:39:50Z</time>
      </trkpt>
      <trkpt lat="30.89140200" lon="34.81780800">
        <ele>507.00000</ele>
        <time>2010-01-01T07:43:22Z</time>
      </trkpt>
      <trkpt lat="30.89039500" lon="34.81545800">
        <ele>504.00000</ele>
        <time>2010-01-01T07:44:52Z</time>
      </trkpt>
      <trkpt lat="30.88880000" lon="34.80958400">
        <ele>502.00000</ele>
        <time>2010-01-01T07:48:24Z</time>
      </trkpt>
      <trkpt lat="30.88804500" lon="34.80429800">
        <ele>496.00000</ele>
        <time>2010-01-01T07:51:28Z</time>
      </trkpt>
      <trkpt lat="30.88770900" lon="34.79993500">
        <ele>493.00000</ele>
        <time>2010-01-01T07:53:58Z</time>
      </trkpt>
      <trkpt lat="30.88645100" lon="34.79599100">
        <ele>492.00000</ele>
        <time>2010-01-01T07:56:23Z</time>
      </trkpt>
      <trkpt lat="30.88359800" lon="34.79397700">
        <ele>490.00000</ele>
        <time>2010-01-01T07:58:36Z</time>
      </trkpt>
      <trkpt lat="30.87940200" lon="34.79213100">
        <ele>477.00000</ele>
        <time>2010-01-01T08:01:36Z</time>
      </trkpt>
      <trkpt lat="30.87663300" lon="34.78852200">
        <ele>472.00000</ele>
        <time>2010-01-01T08:04:22Z</time>
      </trkpt>
      <trkpt lat="30.87310900" lon="34.78407500">
        <ele>473.00000</ele>
        <time>2010-01-01T08:07:50Z</time>
      </trkpt>
      <trkpt lat="30.86849400" lon="34.78021500">
        <ele>478.00000</ele>
        <time>2010-01-01T08:11:38Z</time>
      </trkpt>
      <trkpt lat="30.86564100" lon="34.77811800">
        <ele>481.00000</ele>
        <time>2010-01-01T08:13:53Z</time>
      </trkpt>
      <trkpt lat="30.85995800" lon="34.77451300">
        <ele>487.00000</ele>
        <time>2010-01-01T08:18:12Z</time>
      </trkpt>
      <trkpt lat="30.85432300" lon="34.77048800">
        <ele>493.00000</ele>
        <time>2010-01-01T08:22:36Z</time>
      </trkpt>
      <trkpt lat="30.85244400" lon="34.76903900">
        <ele>493.00000</ele>
        <time>2010-01-01T08:24:07Z</time>
      </trkpt>
      <trkpt lat="30.85067300" lon="34.76791200">
        <ele>489.00000</ele>
        <time>2010-01-01T08:25:27Z</time>
      </trkpt>
      <trkpt lat="30.84911700" lon="34.76544300">
        <ele>493.00000</ele>
        <time>2010-01-01T08:27:13Z</time>
      </trkpt>
      <trkpt lat="30.84772100" lon="34.76072000">
        <ele>506.00000</ele>
        <time>2010-01-01T08:30:04Z</time>
      </trkpt>
      <trkpt lat="30.84804300" lon="34.75878800">
        <ele>505.00000</ele>
        <time>2010-01-01T08:31:12Z</time>
      </trkpt>
      <trkpt lat="30.84868700" lon="34.75728500">
        <ele>509.00000</ele>
        <time>2010-01-01T08:32:10Z</time>
      </trkpt>
      <trkpt lat="30.84879500" lon="34.75465500">
        <ele>505.00000</ele>
        <time>2010-01-01T08:33:40Z</time>
      </trkpt>
      <trkpt lat="30.84756000" lon="34.75224000">
        <ele>508.00000</ele>
        <time>2010-01-01T08:35:17Z</time>
      </trkpt>
      <trkpt lat="30.84697000" lon="34.75014700">
        <ele>499.00000</ele>
        <time>2010-01-01T08:36:32Z</time>
      </trkpt>
      <trkpt lat="30.84627200" lon="34.74735600">
        <ele>493.00000</ele>
        <time>2010-01-01T08:38:12Z</time>
      </trkpt>
      <trkpt lat="30.84412500" lon="34.74365300">
        <ele>483.00000</ele>
        <time>2010-01-01T08:40:46Z</time>
      </trkpt>
      <trkpt lat="30.83881200" lon="34.74134500">
        <ele>499.00000</ele>
        <time>2010-01-01T08:44:33Z</time>
      </trkpt>
      <trkpt lat="30.83473300" lon="34.73957400">
        <ele>505.00000</ele>
        <time>2010-01-01T08:47:27Z</time>
      </trkpt>
      <trkpt lat="30.83199600" lon="34.73893000">
        <ele>512.00000</ele>
        <time>2010-01-01T08:49:19Z</time>
      </trkpt>
      <trkpt lat="30.83033200" lon="34.74038000">
        <ele>523.00000</ele>
        <time>2010-01-01T08:50:42Z</time>
      </trkpt>
      <trkpt lat="30.82931300" lon="34.74258000">
        <ele>538.00000</ele>
        <time>2010-01-01T08:52:08Z</time>
      </trkpt>
      <trkpt lat="30.82866800" lon="34.74429700">
        <ele>549.00000</ele>
        <time>2010-01-01T08:53:12Z</time>
      </trkpt>
      <trkpt lat="30.82754100" lon="34.74628300">
        <ele>540.00000</ele>
        <time>2010-01-01T08:54:34Z</time>
      </trkpt>
      <trkpt lat="30.82668300" lon="34.74810800">
        <ele>537.00000</ele>
        <time>2010-01-01T08:55:46Z</time>
      </trkpt>
      <trkpt lat="30.82732700" lon="34.74826900">
        <ele>535.00000</ele>
        <time>2010-01-01T08:56:12Z</time>
      </trkpt>
      <trkpt lat="30.82807800" lon="34.74907400">
        <ele>530.00000</ele>
        <time>2010-01-01T08:56:53Z</time>
      </trkpt>
      <trkpt lat="30.82818600" lon="34.74971800">
        <ele>529.00000</ele>
        <time>2010-01-01T08:57:16Z</time>
      </trkpt>
      <trkpt lat="30.82813200" lon="34.75148900">
        <ele>521.00000</ele>
        <time>2010-01-01T08:58:16Z</time>
      </trkpt>
      <trkpt lat="30.82820200" lon="34.75161000">
        <ele>521.00000</ele>
        <time>2010-01-01T08:58:21Z</time>
      </trkpt>
      <trkpt lat="30.82801300" lon="34.74934300">
        <ele>531.00000</ele>
        <time>2010-01-01T08:59:40Z</time>
      </trkpt>
      <trkpt lat="30.82669000" lon="34.74839800">
        <ele>537.00000</ele>
        <time>2010-01-01T09:00:42Z</time>
      </trkpt>
      <trkpt lat="30.82801300" lon="34.74509200">
        <ele>542.00000</ele>
        <time>2010-01-01T09:02:47Z</time>
      </trkpt>
      <trkpt lat="30.82914600" lon="34.74263500">
        <ele>542.00000</ele>
        <time>2010-01-01T09:04:23Z</time>
      </trkpt>
      <trkpt lat="30.82980800" lon="34.74103000">
        <ele>527.00000</ele>
        <time>2010-01-01T09:05:24Z</time>
      </trkpt>
      <trkpt lat="30.83131900" lon="34.73914000">
        <ele>518.00000</ele>
        <time>2010-01-01T09:06:53Z</time>
      </trkpt>
      <trkpt lat="30.83396400" lon="34.73914000">
        <ele>505.00000</ele>
        <time>2010-01-01T09:08:39Z</time>
      </trkpt>
      <trkpt lat="30.83493200" lon="34.73957500">
        <ele>505.00000</ele>
        <time>2010-01-01T09:09:21Z</time>
      </trkpt>
      <trkpt lat="30.83536300" lon="34.73845400">
        <ele>505.00000</ele>
        <time>2010-01-01T09:10:03Z</time>
      </trkpt>
      <trkpt lat="30.83511500" lon="34.73666500">
        <ele>504.00000</ele>
        <time>2010-01-01T09:11:05Z</time>
      </trkpt>
      <trkpt lat="30.83448300" lon="34.73543800">
        <ele>508.00000</ele>
        <time>2010-01-01T09:11:54Z</time>
      </trkpt>
      <trkpt lat="30.82963900" lon="34.73098600">
        <ele>520.00000</ele>
        <time>2010-01-01T09:16:01Z</time>
      </trkpt>
      <trkpt lat="30.83093800" lon="34.72974900">
        <ele>515.00000</ele>
        <time>2010-01-01T09:17:08Z</time>
      </trkpt>
      <trkpt lat="30.83200000" lon="34.72979900">
        <ele>512.00000</ele>
        <time>2010-01-01T09:17:51Z</time>
      </trkpt>
      <trkpt lat="30.83310800" lon="34.72929000">
        <ele>511.00000</ele>
        <time>2010-01-01T09:18:39Z</time>
      </trkpt>
      <trkpt lat="30.83419600" lon="34.72335500">
        <ele>503.00000</ele>
        <time>2010-01-01T09:22:07Z</time>
      </trkpt>
      <trkpt lat="30.83327100" lon="34.72106600">
        <ele>511.00000</ele>
        <time>2010-01-01T09:23:34Z</time>
      </trkpt>
      <trkpt lat="30.83258200" lon="34.71764800">
        <ele>515.00000</ele>
        <time>2010-01-01T09:25:35Z</time>
      </trkpt>
      <trkpt lat="30.83175300" lon="34.71535900">
        <ele>509.00000</ele>
        <time>2010-01-01T09:27:00Z</time>
      </trkpt>
      <trkpt lat="30.83222100" lon="34.71160800">
        <ele>487.00000</ele>
        <time>2010-01-01T09:29:11Z</time>
      </trkpt>
      <trkpt lat="30.82834800" lon="34.70877600">
        <ele>494.00000</ele>
        <time>2010-01-01T09:32:14Z</time>
      </trkpt>
      <trkpt lat="30.82694000" lon="34.70671300">
        <ele>500.00000</ele>
        <time>2010-01-01T09:33:44Z</time>
      </trkpt>
      <trkpt lat="30.82346200" lon="34.70622800">
        <ele>505.00000</ele>
        <time>2010-01-01T09:36:04Z</time>
      </trkpt>
      <trkpt lat="30.82055900" lon="34.70456500">
        <ele>509.00000</ele>
        <time>2010-01-01T09:38:14Z</time>
      </trkpt>
      <trkpt lat="30.81711300" lon="34.69988500">
        <ele>519.00000</ele>
        <time>2010-01-01T09:41:46Z</time>
      </trkpt>
      <trkpt lat="30.81307400" lon="34.70035300">
        <ele>529.00000</ele>
        <time>2010-01-01T09:44:28Z</time>
      </trkpt>
      <trkpt lat="30.81113900" lon="34.69935700">
        <ele>538.00000</ele>
        <time>2010-01-01T09:45:53Z</time>
      </trkpt>
      <trkpt lat="30.80877700" lon="34.70020900">
        <ele>542.00000</ele>
        <time>2010-01-01T09:47:32Z</time>
      </trkpt>
      <trkpt lat="30.80781800" lon="34.70178000">
        <ele>542.00000</ele>
        <time>2010-01-01T09:48:38Z</time>
      </trkpt>
      <trkpt lat="30.80675400" lon="34.70145000">
        <ele>547.00000</ele>
        <time>2010-01-01T09:49:22Z</time>
      </trkpt>
      <trkpt lat="30.80395800" lon="34.70241500">
        <ele>553.00000</ele>
        <time>2010-01-01T09:51:19Z</time>
      </trkpt>
      <trkpt lat="30.80346500" lon="34.69978900">
        <ele>559.00000</ele>
        <time>2010-01-01T09:52:51Z</time>
      </trkpt>
      <trkpt lat="30.80196900" lon="34.70007700">
        <ele>570.00000</ele>
        <time>2010-01-01T09:53:52Z</time>
      </trkpt>
      <trkpt lat="30.80134700" lon="34.70136700">
        <ele>567.00000</ele>
        <time>2010-01-01T09:54:43Z</time>
      </trkpt>
      <trkpt lat="30.80188400" lon="34.70287400">
        <ele>569.00000</ele>
        <time>2010-01-01T09:55:39Z</time>
      </trkpt>
      <trkpt lat="30.80000400" lon="34.70344300">
        <ele>577.00000</ele>
        <time>2010-01-01T09:56:57Z</time>
      </trkpt>
      <trkpt lat="30.79790700" lon="34.70255900">
        <ele>586.00000</ele>
        <time>2010-01-01T09:58:26Z</time>
      </trkpt>
      <trkpt lat="30.79603000" lon="34.70413500">
        <ele>593.00000</ele>
        <time>2010-01-01T09:59:59Z</time>
      </trkpt>
      <trkpt lat="30.79302500" lon="34.70090700">
        <ele>604.00000</ele>
        <time>2010-01-01T10:02:43Z</time>
      </trkpt>
      <trkpt lat="30.79017800" lon="34.70131400">
        <ele>621.00000</ele>
        <time>2010-01-01T10:04:37Z</time>
      </trkpt>
      <trkpt lat="30.78898700" lon="34.70517800">
        <ele>660.00000</ele>
        <time>2010-01-01T10:06:58Z</time>
      </trkpt>
      <trkpt lat="30.78757500" lon="34.70384400">
        <ele>651.00000</ele>
        <time>2010-01-01T10:08:11Z</time>
      </trkpt>
      <trkpt lat="30.78651900" lon="34.70524700">
        <ele>641.00000</ele>
        <time>2010-01-01T10:09:15Z</time>
      </trkpt>
      <trkpt lat="30.78145000" lon="34.70527400">
        <ele>626.00000</ele>
        <time>2010-01-01T10:12:38Z</time>
      </trkpt>
      <trkpt lat="30.77855700" lon="34.70629500">
        <ele>618.00000</ele>
        <time>2010-01-01T10:14:39Z</time>
      </trkpt>
      <trkpt lat="30.77711600" lon="34.70820400">
        <ele>615.00000</ele>
        <time>2010-01-01T10:16:07Z</time>
      </trkpt>
      <trkpt lat="30.77571700" lon="34.70832300">
        <ele>617.00000</ele>
        <time>2010-01-01T10:17:03Z</time>
      </trkpt>
      <trkpt lat="30.77524000" lon="34.70972300">
        <ele>611.00000</ele>
        <time>2010-01-01T10:17:55Z</time>
      </trkpt>
      <trkpt lat="30.76960200" lon="34.71243600">
        <ele>602.00000</ele>
        <time>2010-01-01T10:21:59Z</time>
      </trkpt>
      <trkpt lat="30.76752300" lon="34.71149600">
        <ele>610.00000</ele>
        <time>2010-01-01T10:23:28Z</time>
      </trkpt>
      <trkpt lat="30.76603100" lon="34.70960300">
        <ele>622.00000</ele>
        <time>2010-01-01T10:24:57Z</time>
      </trkpt>
      <trkpt lat="30.76521000" lon="34.70960800">
        <ele>626.00000</ele>
        <time>2010-01-01T10:25:29Z</time>
      </trkpt>
      <trkpt lat="30.76472500" lon="34.70877200">
        <ele>631.00000</ele>
        <time>2010-01-01T10:26:04Z</time>
      </trkpt>
      <trkpt lat="30.76390400" lon="34.70866400">
        <ele>631.00000</ele>
        <time>2010-01-01T10:26:37Z</time>
      </trkpt>
      <trkpt lat="30.76147800" lon="34.70565800">
        <ele>649.00000</ele>
        <time>2010-01-01T10:28:59Z</time>
      </trkpt>
      <trkpt lat="30.75993700" lon="34.70656100">
        <ele>645.00000</ele>
        <time>2010-01-01T10:30:08Z</time>
      </trkpt>
      <trkpt lat="30.75893300" lon="34.70919300">
        <ele>645.00000</ele>
        <time>2010-01-01T10:31:47Z</time>
      </trkpt>
      <trkpt lat="30.75807700" lon="34.71249600">
        <ele>646.00000</ele>
        <time>2010-01-01T10:33:46Z</time>
      </trkpt>
      <trkpt lat="30.75910200" lon="34.71545300">
        <ele>637.00000</ele>
        <time>2010-01-01T10:35:36Z</time>
      </trkpt>
      <trkpt lat="30.76138300" lon="34.71873900">
        <ele>634.00000</ele>
        <time>2010-01-01T10:38:01Z</time>
      </trkpt>
      <trkpt lat="30.76221600" lon="34.72169800">
        <ele>619.00000</ele>
        <time>2010-01-01T10:39:48Z</time>
      </trkpt>
      <trkpt lat="30.76755700" lon="34.73011200">
        <ele>569.00000</ele>
        <time>2010-01-01T10:45:48Z</time>
      </trkpt>
      <trkpt lat="30.76572400" lon="34.73040100">
        <ele>573.00000</ele>
        <time>2010-01-01T10:47:02Z</time>
      </trkpt>
      <trkpt lat="30.76495100" lon="34.73029300">
        <ele>574.00000</ele>
        <time>2010-01-01T10:47:33Z</time>
      </trkpt>
      <trkpt lat="30.76350700" lon="34.73130700">
        <ele>579.00000</ele>
        <time>2010-01-01T10:48:40Z</time>
      </trkpt>
      <trkpt lat="30.76461300" lon="34.73504700">
        <ele>594.00000</ele>
        <time>2010-01-01T10:50:57Z</time>
      </trkpt>
      <trkpt lat="30.76399000" lon="34.73605600">
        <ele>601.00000</ele>
        <time>2010-01-01T10:51:39Z</time>
      </trkpt>
      <trkpt lat="30.76153200" lon="34.73713000">
        <ele>596.00000</ele>
        <time>2010-01-01T10:53:24Z</time>
      </trkpt>
      <trkpt lat="30.75762700" lon="34.73860200">
        <ele>593.00000</ele>
        <time>2010-01-01T10:56:09Z</time>
      </trkpt>
      <trkpt lat="30.75502300" lon="34.73950900">
        <ele>599.00000</ele>
        <time>2010-01-01T10:57:58Z</time>
      </trkpt>
      <trkpt lat="30.75483800" lon="34.74169000">
        <ele>598.00000</ele>
        <time>2010-01-01T10:59:13Z</time>
      </trkpt>
      <trkpt lat="30.75411800" lon="34.74292400">
        <ele>604.00000</ele>
        <time>2010-01-01T11:00:04Z</time>
      </trkpt>
      <trkpt lat="30.75021500" lon="34.74473100">
        <ele>611.00000</ele>
        <time>2010-01-01T11:02:52Z</time>
      </trkpt>
      <trkpt lat="30.75052100" lon="34.74583000">
        <ele>614.00000</ele>
        <time>2010-01-01T11:03:32Z</time>
      </trkpt>
      <trkpt lat="30.74960700" lon="34.74684100">
        <ele>614.00000</ele>
        <time>2010-01-01T11:04:23Z</time>
      </trkpt>
      <trkpt lat="30.74903300" lon="34.74824100">
        <ele>618.00000</ele>
        <time>2010-01-01T11:05:16Z</time>
      </trkpt>
      <trkpt lat="30.74768400" lon="34.74903000">
        <ele>625.00000</ele>
        <time>2010-01-01T11:06:16Z</time>
      </trkpt>
      <trkpt lat="30.74542800" lon="34.75261800">
        <ele>625.00000</ele>
        <time>2010-01-01T11:08:49Z</time>
      </trkpt>
      <trkpt lat="30.74461100" lon="34.75385100">
        <ele>628.00000</ele>
        <time>2010-01-01T11:09:43Z</time>
      </trkpt>
      <trkpt lat="30.74544200" lon="34.75664200">
        <ele>634.00000</ele>
        <time>2010-01-01T11:11:25Z</time>
      </trkpt>
      <trkpt lat="30.74521100" lon="34.75977300">
        <ele>641.00000</ele>
        <time>2010-01-01T11:13:13Z</time>
      </trkpt>
      <trkpt lat="30.74429800" lon="34.76089600">
        <ele>643.00000</ele>
        <time>2010-01-01T11:14:06Z</time>
      </trkpt>
      <trkpt lat="30.74241600" lon="34.76101600">
        <ele>646.00000</ele>
        <time>2010-01-01T11:15:21Z</time>
      </trkpt>
      <trkpt lat="30.74046400" lon="34.76286900">
        <ele>653.00000</ele>
        <time>2010-01-01T11:17:02Z</time>
      </trkpt>
      <trkpt lat="30.74114600" lon="34.76471100">
        <ele>672.00000</ele>
        <time>2010-01-01T11:18:11Z</time>
      </trkpt>
      <trkpt lat="30.74033000" lon="34.76600000">
        <ele>666.00000</ele>
        <time>2010-01-01T11:19:06Z</time>
      </trkpt>
      <trkpt lat="30.73830500" lon="34.76684800">
        <ele>683.00000</ele>
        <time>2010-01-01T11:20:32Z</time>
      </trkpt>
      <trkpt lat="30.73744000" lon="34.76802500">
        <ele>688.00000</ele>
        <time>2010-01-01T11:21:26Z</time>
      </trkpt>
      <trkpt lat="30.73570200" lon="34.76808900">
        <ele>688.00000</ele>
        <time>2010-01-01T11:22:35Z</time>
      </trkpt>
      <trkpt lat="30.73502800" lon="34.76837100">
        <ele>690.00000</ele>
        <time>2010-01-01T11:23:04Z</time>
      </trkpt>
      <trkpt lat="30.73401700" lon="34.76921400">
        <ele>690.00000</ele>
        <time>2010-01-01T11:23:54Z</time>
      </trkpt>
      <trkpt lat="30.73184400" lon="34.76922500">
        <ele>692.00000</ele>
        <time>2010-01-01T11:25:21Z</time>
      </trkpt>
      <trkpt lat="30.73039900" lon="34.77012500">
        <ele>686.00000</ele>
        <time>2010-01-01T11:26:26Z</time>
      </trkpt>
      <trkpt lat="30.72803800" lon="34.77142100">
        <ele>702.00000</ele>
        <time>2010-01-01T11:28:11Z</time>
      </trkpt>
      <trkpt lat="30.72660400" lon="34.77243300">
        <ele>709.00000</ele>
        <time>2010-01-01T11:29:18Z</time>
      </trkpt>
      <trkpt lat="30.72632200" lon="34.77472600">
        <ele>715.00000</ele>
        <time>2010-01-01T11:30:38Z</time>
      </trkpt>
      <trkpt lat="30.72439300" lon="34.77512600">
        <ele>715.00000</ele>
        <time>2010-01-01T11:31:56Z</time>
      </trkpt>
      <trkpt lat="30.72251600" lon="34.77689900">
        <ele>717.00000</ele>
        <time>2010-01-01T11:33:33Z</time>
      </trkpt>
      <trkpt lat="30.72020200" lon="34.77791500">
        <ele>723.00000</ele>
        <time>2010-01-01T11:35:12Z</time>
      </trkpt>
      <trkpt lat="30.71759700" lon="34.77848500">
        <ele>721.00000</ele>
        <time>2010-01-01T11:36:58Z</time>
      </trkpt>
      <trkpt lat="30.71756700" lon="34.77714500">
        <ele>726.00000</ele>
        <time>2010-01-01T11:37:44Z</time>
      </trkpt>
      <trkpt lat="30.71472000" lon="34.77760500">
        <ele>725.00000</ele>
        <time>2010-01-01T11:39:39Z</time>
      </trkpt>
      <trkpt lat="30.71428900" lon="34.77861200">
        <ele>724.00000</ele>
        <time>2010-01-01T11:40:18Z</time>
      </trkpt>
      <trkpt lat="30.71332300" lon="34.77861600">
        <ele>714.00000</ele>
        <time>2010-01-01T11:40:57Z</time>
      </trkpt>
      <trkpt lat="30.70527600" lon="34.78284200">
        <ele>694.00000</ele>
        <time>2010-01-01T11:46:50Z</time>
      </trkpt>
      <trkpt lat="30.70532100" lon="34.78206000">
        <ele>688.00000</ele>
        <time>2010-01-01T11:47:17Z</time>
      </trkpt>
      <trkpt lat="30.70154900" lon="34.77984200">
        <ele>699.00000</ele>
        <time>2010-01-01T11:50:06Z</time>
      </trkpt>
      <trkpt lat="30.69922400" lon="34.77784200">
        <ele>701.00000</ele>
        <time>2010-01-01T11:52:02Z</time>
      </trkpt>
      <trkpt lat="30.69728100" lon="34.77405100">
        <ele>699.00000</ele>
        <time>2010-01-01T11:54:34Z</time>
      </trkpt>
      <trkpt lat="30.69351500" lon="34.77278400">
        <ele>709.00000</ele>
        <time>2010-01-01T11:57:11Z</time>
      </trkpt>
      <trkpt lat="30.68964200" lon="34.76956100">
        <ele>707.00000</ele>
        <time>2010-01-01T12:00:21Z</time>
      </trkpt>
      <trkpt lat="30.68598300" lon="34.77265000">
        <ele>718.00000</ele>
        <time>2010-01-01T12:03:22Z</time>
      </trkpt>
      <trkpt lat="30.68103100" lon="34.77864900">
        <ele>723.00000</ele>
        <time>2010-01-01T12:08:09Z</time>
      </trkpt>
      <trkpt lat="30.68041200" lon="34.78110900">
        <ele>723.00000</ele>
        <time>2010-01-01T12:09:37Z</time>
      </trkpt>
      <trkpt lat="30.67839200" lon="34.78357600">
        <ele>729.00000</ele>
        <time>2010-01-01T12:11:34Z</time>
      </trkpt>
      <trkpt lat="30.67787400" lon="34.78737600">
        <ele>748.00000</ele>
        <time>2010-01-01T12:13:47Z</time>
      </trkpt>
      <trkpt lat="30.67406500" lon="34.79034900">
        <ele>755.00000</ele>
        <time>2010-01-01T12:16:50Z</time>
      </trkpt>
      <trkpt lat="30.67112600" lon="34.79220500">
        <ele>749.00000</ele>
        <time>2010-01-01T12:19:04Z</time>
      </trkpt>
      <trkpt lat="30.66953300" lon="34.79221200">
        <ele>752.00000</ele>
        <time>2010-01-01T12:20:08Z</time>
      </trkpt>
      <trkpt lat="30.66842500" lon="34.79311000">
        <ele>751.00000</ele>
        <time>2010-01-01T12:21:02Z</time>
      </trkpt>
      <trkpt lat="30.66197200" lon="34.79805200">
        <ele>758.00000</ele>
        <time>2010-01-01T12:26:11Z</time>
      </trkpt>
      <trkpt lat="30.65744600" lon="34.80192400">
        <ele>758.00000</ele>
        <time>2010-01-01T12:29:56Z</time>
      </trkpt>
      <trkpt lat="30.65655700" lon="34.80047600">
        <ele>758.00000</ele>
        <time>2010-01-01T12:30:58Z</time>
      </trkpt>
      <trkpt lat="30.65562900" lon="34.79724100">
        <ele>762.00000</ele>
        <time>2010-01-01T12:32:55Z</time>
      </trkpt>
      <trkpt lat="30.65465600" lon="34.79484400">
        <ele>763.00000</ele>
        <time>2010-01-01T12:34:26Z</time>
      </trkpt>
      <trkpt lat="30.65136800" lon="34.79323900">
        <ele>766.00000</ele>
        <time>2010-01-01T12:36:49Z</time>
      </trkpt>
      <trkpt lat="30.64986200" lon="34.79017500">
        <ele>764.00000</ele>
        <time>2010-01-01T12:38:51Z</time>
      </trkpt>
      <trkpt lat="30.64682200" lon="34.79069100">
        <ele>766.00000</ele>
        <time>2010-01-01T12:40:54Z</time>
      </trkpt>
      <trkpt lat="30.64561500" lon="34.79052800">
        <ele>766.00000</ele>
        <time>2010-01-01T12:41:42Z</time>
      </trkpt>
      <trkpt lat="30.64464700" lon="34.78975000">
        <ele>767.00000</ele>
        <time>2010-01-01T12:42:29Z</time>
      </trkpt>
      <trkpt lat="30.64344400" lon="34.79104000">
        <ele>769.00000</ele>
        <time>2010-01-01T12:43:35Z</time>
      </trkpt>
      <trkpt lat="30.64253900" lon="34.79484100">
        <ele>775.00000</ele>
        <time>2010-01-01T12:45:51Z</time>
      </trkpt>
      <trkpt lat="30.63766500" lon="34.79536400">
        <ele>779.00000</ele>
        <time>2010-01-01T12:49:07Z</time>
      </trkpt>
      <trkpt lat="30.63466300" lon="34.79275300">
        <ele>777.00000</ele>
        <time>2010-01-01T12:51:37Z</time>
      </trkpt>
      <trkpt lat="30.63081600" lon="34.79036900">
        <ele>792.00000</ele>
        <time>2010-01-01T12:54:31Z</time>
      </trkpt>
      <trkpt lat="30.62839500" lon="34.78814600">
        <ele>791.00000</ele>
        <time>2010-01-01T12:56:35Z</time>
      </trkpt>
      <trkpt lat="30.62684400" lon="34.78647800">
        <ele>792.00000</ele>
        <time>2010-01-01T12:57:59Z</time>
      </trkpt>
      <trkpt lat="30.62542900" lon="34.78648500">
        <ele>797.00000</ele>
        <time>2010-01-01T12:58:56Z</time>
      </trkpt>
      <trkpt lat="30.62270800" lon="34.78130500">
        <ele>800.00000</ele>
        <time>2010-01-01T13:02:25Z</time>
      </trkpt>
      <trkpt lat="30.62058300" lon="34.78109100">
        <ele>807.00000</ele>
        <time>2010-01-01T13:03:50Z</time>
      </trkpt>
      <trkpt lat="30.61802200" lon="34.78026500">
        <ele>817.00000</ele>
        <time>2010-01-01T13:05:37Z</time>
      </trkpt>
      <trkpt lat="30.61516900" lon="34.77888300">
        <ele>818.00000</ele>
        <time>2010-01-01T13:07:40Z</time>
      </trkpt>
      <trkpt lat="30.61265000" lon="34.77632600">
        <ele>823.00000</ele>
        <time>2010-01-01T13:09:54Z</time>
      </trkpt>
      <trkpt lat="30.61055000" lon="34.77717300">
        <ele>826.00000</ele>
        <time>2010-01-01T13:11:23Z</time>
      </trkpt>
      <trkpt lat="30.60803600" lon="34.77623500">
        <ele>834.00000</ele>
        <time>2010-01-01T13:13:09Z</time>
      </trkpt>
      <trkpt lat="30.60716300" lon="34.77517900">
        <ele>833.00000</ele>
        <time>2010-01-01T13:13:59Z</time>
      </trkpt>
      <trkpt lat="30.60528200" lon="34.77552200">
        <ele>840.00000</ele>
        <time>2010-01-01T13:15:16Z</time>
      </trkpt>
      <trkpt lat="30.60219000" lon="34.77464300">
        <ele>851.00000</ele>
        <time>2010-01-01T13:17:23Z</time>
      </trkpt>
      <trkpt lat="30.60070500" lon="34.77811000">
        <ele>872.00000</ele>
        <time>2010-01-01T13:19:37Z</time>
      </trkpt>
      <trkpt lat="30.60100100" lon="34.78006200">
        <ele>865.00000</ele>
        <time>2010-01-01T13:20:45Z</time>
      </trkpt>
      <trkpt lat="30.60225900" lon="34.78106100">
        <ele>859.00000</ele>
        <time>2010-01-01T13:21:46Z</time>
      </trkpt>
      <trkpt lat="30.60337500" lon="34.78284200">
        <ele>852.00000</ele>
        <time>2010-01-01T13:23:02Z</time>
      </trkpt>
      <trkpt lat="30.60574400" lon="34.78378000">
        <ele>851.00000</ele>
        <time>2010-01-01T13:24:42Z</time>
      </trkpt>
      <trkpt lat="30.60627900" lon="34.78506200">
        <ele>848.00000</ele>
        <time>2010-01-01T13:25:31Z</time>
      </trkpt>
      <trkpt lat="30.60927900" lon="34.78705800">
        <ele>835.00000</ele>
        <time>2010-01-01T13:27:49Z</time>
      </trkpt>
      <trkpt lat="30.60875700" lon="34.78990700">
        <ele>832.00000</ele>
        <time>2010-01-01T13:29:30Z</time>
      </trkpt>
      <trkpt lat="30.61064800" lon="34.79252100">
        <ele>826.00000</ele>
        <time>2010-01-01T13:31:27Z</time>
      </trkpt>
      <trkpt lat="30.60786800" lon="34.79856100">
        <ele>844.00000</ele>
        <time>2010-01-01T13:35:23Z</time>
      </trkpt>
      <trkpt lat="30.60895900" lon="34.80086800">
        <ele>859.00000</ele>
        <time>2010-01-01T13:36:54Z</time>
      </trkpt>
      <trkpt lat="30.61111500" lon="34.80255600">
        <ele>843.00000</ele>
        <time>2010-01-01T13:38:38Z</time>
      </trkpt>
      <trkpt lat="30.61402300" lon="34.80461900">
        <ele>838.00000</ele>
        <time>2010-01-01T13:40:55Z</time>
      </trkpt>
      <trkpt lat="30.61711700" lon="34.80743200">
        <ele>833.00000</ele>
        <time>2010-01-01T13:43:32Z</time>
      </trkpt>
      <trkpt lat="30.61927400" lon="34.81071400">
        <ele>828.00000</ele>
        <time>2010-01-01T13:45:54Z</time>
      </trkpt>
      <trkpt lat="30.62396300" lon="34.81427800">
        <ele>810.00000</ele>
        <time>2010-01-01T13:49:38Z</time>
      </trkpt>
      <trkpt lat="30.62752600" lon="34.81699700">
        <ele>806.00000</ele>
        <time>2010-01-01T13:52:29Z</time>
      </trkpt>
      <trkpt lat="30.63146500" lon="34.82103000">
        <ele>802.00000</ele>
        <time>2010-01-01T13:55:59Z</time>
      </trkpt>
      <trkpt lat="30.63399600" lon="34.82403000">
        <ele>798.00000</ele>
        <time>2010-01-01T13:58:24Z</time>
      </trkpt>
      <trkpt lat="30.63643500" lon="34.82721900">
        <ele>792.00000</ele>
        <time>2010-01-01T14:00:51Z</time>
      </trkpt>
      <trkpt lat="30.63709100" lon="34.82825000">
        <ele>800.00000</ele>
        <time>2010-01-01T14:01:35Z</time>
      </trkpt>
      <trkpt lat="30.64009200" lon="34.82834400">
        <ele>784.00000</ele>
        <time>2010-01-01T14:03:35Z</time>
      </trkpt>
      <trkpt lat="30.64299900" lon="34.83200100">
        <ele>777.00000</ele>
        <time>2010-01-01T14:06:27Z</time>
      </trkpt>
      <trkpt lat="30.64468700" lon="34.83640900">
        <ele>781.00000</ele>
        <time>2010-01-01T14:09:13Z</time>
      </trkpt>
      <trkpt lat="30.64712500" lon="34.83922200">
        <ele>772.00000</ele>
        <time>2010-01-01T14:11:30Z</time>
      </trkpt>
      <trkpt lat="30.82820300" lon="34.75123400">
        <ele>522.00000</ele>
        <time>2010-01-01T16:22:26Z</time>
      </trkpt>
      <trkpt lat="30.82811200" lon="34.75041100">
        <ele>525.00000</ele>
        <time>2010-01-01T16:22:54Z</time>
      </trkpt>
      <trkpt lat="30.82818000" lon="34.74949600">
        <ele>529.00000</ele>
        <time>2010-01-01T16:23:26Z</time>
      </trkpt>
      <trkpt lat="30.82781500" lon="34.74858200">
        <ele>533.00000</ele>
        <time>2010-01-01T16:24:00Z</time>
      </trkpt>
      <trkpt lat="30.82726600" lon="34.74810200">
        <ele>535.00000</ele>
        <time>2010-01-01T16:24:28Z</time>
      </trkpt>
      <trkpt lat="30.82676300" lon="34.74803300">
        <ele>537.00000</ele>
        <time>2010-01-01T16:24:48Z</time>
      </trkpt>
      <trkpt lat="30.82674000" lon="34.74785000">
        <ele>537.00000</ele>
        <time>2010-01-01T16:24:55Z</time>
      </trkpt>
      <trkpt lat="30.82738000" lon="34.74702800">
        <ele>536.00000</ele>
        <time>2010-01-01T16:25:33Z</time>
      </trkpt>
      <trkpt lat="30.82799700" lon="34.74581600">
        <ele>540.00000</ele>
        <time>2010-01-01T16:26:21Z</time>
      </trkpt>
      <trkpt lat="30.82868300" lon="34.74428400">
        <ele>549.00000</ele>
        <time>2010-01-01T16:27:21Z</time>
      </trkpt>
      <trkpt lat="30.82932300" lon="34.74225000">
        <ele>537.00000</ele>
        <time>2010-01-01T16:28:35Z</time>
      </trkpt>
      <trkpt lat="30.82966600" lon="34.74087800">
        <ele>530.00000</ele>
        <time>2010-01-01T16:29:24Z</time>
      </trkpt>
      <trkpt lat="30.83069500" lon="34.73948400">
        <ele>525.00000</ele>
        <time>2010-01-01T16:30:27Z</time>
      </trkpt>
      <trkpt lat="30.83179200" lon="34.73884400">
        <ele>514.00000</ele>
        <time>2010-01-01T16:31:16Z</time>
      </trkpt>
      <trkpt lat="30.83202100" lon="34.73934700">
        <ele>511.00000</ele>
        <time>2010-01-01T16:31:36Z</time>
      </trkpt>
      <trkpt lat="30.83190600" lon="34.74053600">
        <ele>512.00000</ele>
        <time>2010-01-01T16:32:17Z</time>
      </trkpt>
      <trkpt lat="30.83229500" lon="34.74133600">
        <ele>506.00000</ele>
        <time>2010-01-01T16:32:49Z</time>
      </trkpt>
      <trkpt lat="30.83373700" lon="34.74216600">
        <ele>502.00000</ele>
        <time>2010-01-01T16:33:53Z</time>
      </trkpt>
      <trkpt lat="30.83641900" lon="34.74574200">
        <ele>494.00000</ele>
        <time>2010-01-01T16:36:36Z</time>
      </trkpt>
      <trkpt lat="30.83781600" lon="34.74713900">
        <ele>488.00000</ele>
        <time>2010-01-01T16:37:50Z</time>
      </trkpt>
      <trkpt lat="30.84122500" lon="34.74803400">
        <ele>476.00000</ele>
        <time>2010-01-01T16:40:10Z</time>
      </trkpt>
      <trkpt lat="30.84306900" lon="34.74831300">
        <ele>481.00000</ele>
        <time>2010-01-01T16:41:24Z</time>
      </trkpt>
      <trkpt lat="30.84591900" lon="34.75010100">
        <ele>489.00000</ele>
        <time>2010-01-01T16:43:34Z</time>
      </trkpt>
      <trkpt lat="30.84709200" lon="34.75200100">
        <ele>504.00000</ele>
        <time>2010-01-01T16:44:54Z</time>
      </trkpt>
      <trkpt lat="30.84798600" lon="34.75233600">
        <ele>510.00000</ele>
        <time>2010-01-01T16:45:32Z</time>
      </trkpt>
      <trkpt lat="30.84888000" lon="34.75434800">
        <ele>506.00000</ele>
        <time>2010-01-01T16:46:50Z</time>
      </trkpt>
      <trkpt lat="30.84860100" lon="34.75669500">
        <ele>506.00000</ele>
        <time>2010-01-01T16:48:11Z</time>
      </trkpt>
      <trkpt lat="30.84731600" lon="34.75993600">
        <ele>494.00000</ele>
        <time>2010-01-01T16:50:14Z</time>
      </trkpt>
      <trkpt lat="30.84904800" lon="34.76513300">
        <ele>494.00000</ele>
        <time>2010-01-01T16:53:25Z</time>
      </trkpt>
      <trkpt lat="30.85105900" lon="34.76753500">
        <ele>493.00000</ele>
        <time>2010-01-01T16:55:21Z</time>
      </trkpt>
      <trkpt lat="30.85435700" lon="34.77027300">
        <ele>493.00000</ele>
        <time>2010-01-01T16:58:03Z</time>
      </trkpt>
      <trkpt lat="30.86413500" lon="34.77692300">
        <ele>484.00000</ele>
        <time>2010-01-01T17:05:36Z</time>
      </trkpt>
      <trkpt lat="30.85664800" lon="34.78402000">
        <ele>481.00000</ele>
        <time>2010-01-01T17:12:03Z</time>
      </trkpt>
      <trkpt lat="30.85614500" lon="34.78547300">
        <ele>478.00000</ele>
        <time>2010-01-01T17:12:56Z</time>
      </trkpt>
      <trkpt lat="30.85631200" lon="34.78687000">
        <ele>477.00000</ele>
        <time>2010-01-01T17:13:45Z</time>
      </trkpt>
      <trkpt lat="30.85608900" lon="34.78826700">
        <ele>485.00000</ele>
        <time>2010-01-01T17:14:34Z</time>
      </trkpt>
      <trkpt lat="30.85530600" lon="34.79027800">
        <ele>480.00000</ele>
        <time>2010-01-01T17:15:50Z</time>
      </trkpt>
      <trkpt lat="30.85463600" lon="34.79134000">
        <ele>478.00000</ele>
        <time>2010-01-01T17:16:35Z</time>
      </trkpt>
      <trkpt lat="30.85519500" lon="34.79312800">
        <ele>478.00000</ele>
        <time>2010-01-01T17:17:40Z</time>
      </trkpt>
      <trkpt lat="30.85664800" lon="34.79687200">
        <ele>472.00000</ele>
        <time>2010-01-01T17:20:01Z</time>
      </trkpt>
      <trkpt lat="30.85664800" lon="34.79944200">
        <ele>480.00000</ele>
        <time>2010-01-01T17:21:30Z</time>
      </trkpt>
      <trkpt lat="30.85553000" lon="34.80285100">
        <ele>480.00000</ele>
        <time>2010-01-01T17:23:35Z</time>
      </trkpt>
      <trkpt lat="30.85575300" lon="34.80553300">
        <ele>473.00000</ele>
        <time>2010-01-01T17:25:08Z</time>
      </trkpt>
      <trkpt lat="30.86005600" lon="34.80547700">
        <ele>476.00000</ele>
        <time>2010-01-01T17:28:00Z</time>
      </trkpt>
      <trkpt lat="30.86156500" lon="34.80670700">
        <ele>479.00000</ele>
        <time>2010-01-01T17:29:14Z</time>
      </trkpt>
      <trkpt lat="30.86452600" lon="34.80961300">
        <ele>486.00000</ele>
        <time>2010-01-01T17:31:49Z</time>
      </trkpt>
      <trkpt lat="30.86620300" lon="34.81251800">
        <ele>493.00000</ele>
        <time>2010-01-01T17:33:49Z</time>
      </trkpt>
      <trkpt lat="30.86575600" lon="34.81486500">
        <ele>508.00000</ele>
        <time>2010-01-01T17:35:12Z</time>
      </trkpt>
      <trkpt lat="30.86419100" lon="34.81726800">
        <ele>522.00000</ele>
        <time>2010-01-01T17:36:55Z</time>
      </trkpt>
      <trkpt lat="30.86374400" lon="34.81922400">
        <ele>509.00000</ele>
        <time>2010-01-01T17:38:05Z</time>
      </trkpt>
      <trkpt lat="30.86357600" lon="34.82034100">
        <ele>527.00000</ele>
        <time>2010-01-01T17:38:44Z</time>
      </trkpt>
      <trkpt lat="30.86396800" lon="34.82129100">
        <ele>533.00000</ele>
        <time>2010-01-01T17:39:20Z</time>
      </trkpt>
      <trkpt lat="30.86435900" lon="34.82570600">
        <ele>527.00000</ele>
        <time>2010-01-01T17:41:53Z</time>
      </trkpt>
      <trkpt lat="30.86402400" lon="34.82838800">
        <ele>530.00000</ele>
        <time>2010-01-01T17:43:26Z</time>
      </trkpt>
      <trkpt lat="30.86352000" lon="34.83241100">
        <ele>544.00000</ele>
        <time>2010-01-01T17:45:45Z</time>
      </trkpt>
      <trkpt lat="30.86452600" lon="34.83514900">
        <ele>550.00000</ele>
        <time>2010-01-01T17:47:28Z</time>
      </trkpt>
      <trkpt lat="30.86732000" lon="34.84079300">
        <ele>559.00000</ele>
        <time>2010-01-01T17:51:12Z</time>
      </trkpt>
      <trkpt lat="30.86983500" lon="34.84420200">
        <ele>575.00000</ele>
        <time>2010-01-01T17:53:46Z</time>
      </trkpt>
      <trkpt lat="30.87195900" lon="34.84626900">
        <ele>560.00000</ele>
        <time>2010-01-01T17:55:37Z</time>
      </trkpt>
      <trkpt lat="30.87302000" lon="34.84599000">
        <ele>553.00000</ele>
        <time>2010-01-01T17:56:20Z</time>
      </trkpt>
      <trkpt lat="30.87374600" lon="34.84649300">
        <ele>553.00000</ele>
        <time>2010-01-01T17:56:54Z</time>
      </trkpt>
      <trkpt lat="30.87570200" lon="34.84571000">
        <ele>549.00000</ele>
        <time>2010-01-01T17:58:17Z</time>
      </trkpt>
      <trkpt lat="30.87737900" lon="34.84436900">
        <ele>545.00000</ele>
        <time>2010-01-01T17:59:38Z</time>
      </trkpt>
      <trkpt lat="30.88481100" lon="34.85437200">
        <ele>572.00000</ele>
        <time>2010-01-01T18:07:13Z</time>
      </trkpt>
      <trkpt lat="30.88648700" lon="34.85381300">
        <ele>573.00000</ele>
        <time>2010-01-01T18:08:23Z</time>
      </trkpt>
      <trkpt lat="30.89051000" lon="34.85264000">
        <ele>543.00000</ele>
        <time>2010-01-01T18:11:09Z</time>
      </trkpt>
      <trkpt lat="30.89028700" lon="34.85548900">
        <ele>552.00000</ele>
        <time>2010-01-01T18:12:47Z</time>
      </trkpt>
      <trkpt lat="30.89045500" lon="34.85705400">
        <ele>553.00000</ele>
        <time>2010-01-01T18:13:41Z</time>
      </trkpt>
      <trkpt lat="30.89129300" lon="34.85806000">
        <ele>556.00000</ele>
        <time>2010-01-01T18:14:29Z</time>
      </trkpt>
      <trkpt lat="30.89341600" lon="34.85917700">
        <ele>573.00000</ele>
        <time>2010-01-01T18:16:03Z</time>
      </trkpt>
      <trkpt lat="30.89503700" lon="34.85973600">
        <ele>592.00000</ele>
        <time>2010-01-01T18:17:10Z</time>
      </trkpt>
      <trkpt lat="30.89626600" lon="34.86023900">
        <ele>591.00000</ele>
        <time>2010-01-01T18:18:02Z</time>
      </trkpt>
      <trkpt lat="30.89833300" lon="34.85906600">
        <ele>567.00000</ele>
        <time>2010-01-01T18:19:34Z</time>
      </trkpt>
      <trkpt lat="30.90034500" lon="34.85744500">
        <ele>556.00000</ele>
        <time>2010-01-01T18:21:12Z</time>
      </trkpt>
      <trkpt lat="30.90291600" lon="34.85839500">
        <ele>583.00000</ele>
        <time>2010-01-01T18:23:00Z</time>
      </trkpt>
      <trkpt lat="30.90224500" lon="34.85956800">
        <ele>568.00000</ele>
        <time>2010-01-01T18:23:49Z</time>
      </trkpt>
      <trkpt lat="30.90157400" lon="34.86213900">
        <ele>575.00000</ele>
        <time>2010-01-01T18:25:21Z</time>
      </trkpt>
      <trkpt lat="30.90157400" lon="34.86487700">
        <ele>566.00000</ele>
        <time>2010-01-01T18:26:55Z</time>
      </trkpt>
      <trkpt lat="30.90084800" lon="34.86571500">
        <ele>570.00000</ele>
        <time>2010-01-01T18:27:36Z</time>
      </trkpt>
      <trkpt lat="30.90028900" lon="34.86744700">
        <ele>572.00000</ele>
        <time>2010-01-01T18:28:40Z</time>
      </trkpt>
      <trkpt lat="30.99729400" lon="34.94240500">
        <ele>510.00000</ele>
        <time>2010-01-01T19:46:18Z</time>
      </trkpt>
      <trkpt lat="30.99732400" lon="34.94274800">
        <ele>510.00000</ele>
        <time>2010-01-01T19:46:30Z</time>
      </trkpt>
      <trkpt lat="30.99807100" lon="34.94400400">
        <ele>514.00000</ele>
        <time>2010-01-01T19:47:22Z</time>
      </trkpt>
      <trkpt lat="30.99890800" lon="34.94499000">
        <ele>511.00000</ele>
        <time>2010-01-01T19:48:10Z</time>
      </trkpt>
      <trkpt lat="30.99964100" lon="34.94537900">
        <ele>509.00000</ele>
        <time>2010-01-01T19:48:42Z</time>
      </trkpt>
      <trkpt lat="31.00052300" lon="34.94493000">
        <ele>506.00000</ele>
        <time>2010-01-01T19:49:21Z</time>
      </trkpt>
      <trkpt lat="31.00898300" lon="34.95410800">
        <ele>513.00000</ele>
        <time>2010-01-01T19:57:03Z</time>
      </trkpt>
      <trkpt lat="31.01316900" lon="34.95898100">
        <ele>528.00000</ele>
        <time>2010-01-01T20:01:00Z</time>
      </trkpt>
      <trkpt lat="31.01769800" lon="34.96247900">
        <ele>534.00000</ele>
        <time>2010-01-01T20:04:37Z</time>
      </trkpt>
      <trkpt lat="31.01961100" lon="34.96413800">
        <ele>542.00000</ele>
        <time>2010-01-01T20:06:13Z</time>
      </trkpt>
      <trkpt lat="31.02209200" lon="34.96654500">
        <ele>555.00000</ele>
        <time>2010-01-01T20:08:22Z</time>
      </trkpt>
      <trkpt lat="31.02510000" lon="34.96870800">
        <ele>565.00000</ele>
        <time>2010-01-01T20:10:43Z</time>
      </trkpt>
      <trkpt lat="31.05223500" lon="34.99723000">
        <ele>536.00000</ele>
        <time>2010-01-01T20:35:05Z</time>
      </trkpt>
      <trkpt lat="31.05304000" lon="34.99649900">
        <ele>539.00000</ele>
        <time>2010-01-01T20:35:46Z</time>
      </trkpt>
      <trkpt lat="31.06796200" lon="35.00600800">
        <ele>529.00000</ele>
        <time>2010-01-01T20:47:06Z</time>
      </trkpt>
      <trkpt lat="31.06364600" lon="35.01551700">
        <ele>536.00000</ele>
        <time>2010-01-01T20:53:15Z</time>
      </trkpt>
      <trkpt lat="31.06194400" lon="35.01943700">
        <ele>543.00000</ele>
        <time>2010-01-01T20:55:46Z</time>
      </trkpt>
      <trkpt lat="31.06297100" lon="35.02058500">
        <ele>543.00000</ele>
        <time>2010-01-01T20:56:43Z</time>
      </trkpt>
      <trkpt lat="31.06433000" lon="35.02173200">
        <ele>541.00000</ele>
        <time>2010-01-01T20:57:50Z</time>
      </trkpt>
      <trkpt lat="31.06493300" lon="35.02236600">
        <ele>539.00000</ele>
        <time>2010-01-01T20:58:23Z</time>
      </trkpt>
      <trkpt lat="31.06632200" lon="35.02496300">
        <ele>539.00000</ele>
        <time>2010-01-01T21:00:08Z</time>
      </trkpt>
      <trkpt lat="31.06710800" lon="35.02695600">
        <ele>544.00000</ele>
        <time>2010-01-01T21:01:23Z</time>
      </trkpt>
      <trkpt lat="31.06728900" lon="35.02922000">
        <ele>549.00000</ele>
        <time>2010-01-01T21:02:41Z</time>
      </trkpt>
      <trkpt lat="31.06744000" lon="35.03178700">
        <ele>551.00000</ele>
        <time>2010-01-01T21:04:09Z</time>
      </trkpt>
      <trkpt lat="31.07658900" lon="35.03130400">
        <ele>560.00000</ele>
        <time>2010-01-01T21:10:16Z</time>
      </trkpt>
      <trkpt lat="31.07679900" lon="35.04136400">
        <ele>565.00000</ele>
        <time>2010-01-01T21:16:01Z</time>
      </trkpt>
      <trkpt lat="31.08020400" lon="35.04127500">
        <ele>556.00000</ele>
        <time>2010-01-01T21:18:17Z</time>
      </trkpt>
      <trkpt lat="31.08021700" lon="35.04196900">
        <ele>556.00000</ele>
        <time>2010-01-01T21:18:41Z</time>
      </trkpt>
      <trkpt lat="31.08049700" lon="35.04235000">
        <ele>554.00000</ele>
        <time>2010-01-01T21:18:58Z</time>
      </trkpt>
      <trkpt lat="31.08179500" lon="35.04386500">
        <ele>551.00000</ele>
        <time>2010-01-01T21:20:11Z</time>
      </trkpt>
      <trkpt lat="31.08267400" lon="35.04398000">
        <ele>553.00000</ele>
        <time>2010-01-01T21:20:47Z</time>
      </trkpt>
      <trkpt lat="31.08304900" lon="35.04374500">
        <ele>557.00000</ele>
        <time>2010-01-01T21:21:04Z</time>
      </trkpt>
      <trkpt lat="31.08345600" lon="35.04409400">
        <ele>557.00000</ele>
        <time>2010-01-01T21:21:24Z</time>
      </trkpt>
      <trkpt lat="31.08397200" lon="35.04417700">
        <ele>562.00000</ele>
        <time>2010-01-01T21:21:45Z</time>
      </trkpt>
      <trkpt lat="31.08457700" lon="35.04402400">
        <ele>564.00000</ele>
        <time>2010-01-01T21:22:10Z</time>
      </trkpt>
      <trkpt lat="31.08527100" lon="35.04391000">
        <ele>561.00000</ele>
        <time>2010-01-01T21:22:38Z</time>
      </trkpt>
      <trkpt lat="31.08578000" lon="35.04401800">
        <ele>565.00000</ele>
        <time>2010-01-01T21:22:58Z</time>
      </trkpt>
      <trkpt lat="31.08647200" lon="35.04390300">
        <ele>572.00000</ele>
        <time>2010-01-01T21:23:26Z</time>
      </trkpt>
      <trkpt lat="31.08777100" lon="35.04186900">
        <ele>596.00000</ele>
        <time>2010-01-01T21:24:53Z</time>
      </trkpt>
      <trkpt lat="31.08833500" lon="35.04034900">
        <ele>605.00000</ele>
        <time>2010-01-01T21:25:50Z</time>
      </trkpt>
      <trkpt lat="31.08953500" lon="35.03990800">
        <ele>615.00000</ele>
        <time>2010-01-01T21:26:41Z</time>
      </trkpt>
      <trkpt lat="31.09088300" lon="35.03907500">
        <ele>634.00000</ele>
        <time>2010-01-01T21:27:42Z</time>
      </trkpt>
      <trkpt lat="31.09193700" lon="35.03831500">
        <ele>646.00000</ele>
        <time>2010-01-01T21:28:31Z</time>
      </trkpt>
      <trkpt lat="31.09245200" lon="35.03883000">
        <ele>642.00000</ele>
        <time>2010-01-01T21:28:58Z</time>
      </trkpt>
      <trkpt lat="31.09294200" lon="35.04003100">
        <ele>618.00000</ele>
        <time>2010-01-01T21:29:44Z</time>
      </trkpt>
      <trkpt lat="31.09362800" lon="35.04101100">
        <ele>613.00000</ele>
        <time>2010-01-01T21:30:27Z</time>
      </trkpt>
      <trkpt lat="31.09421600" lon="35.04182000">
        <ele>624.00000</ele>
        <time>2010-01-01T21:31:04Z</time>
      </trkpt>
      <trkpt lat="31.09522100" lon="35.04272700">
        <ele>633.00000</ele>
        <time>2010-01-01T21:31:55Z</time>
      </trkpt>
      <trkpt lat="31.09612800" lon="35.04311800">
        <ele>642.00000</ele>
        <time>2010-01-01T21:32:33Z</time>
      </trkpt>
      <trkpt lat="31.09691200" lon="35.04326500">
        <ele>638.00000</ele>
        <time>2010-01-01T21:33:05Z</time>
      </trkpt>
      <trkpt lat="31.09791700" lon="35.04395200">
        <ele>642.00000</ele>
        <time>2010-01-01T21:33:52Z</time>
      </trkpt>
      <trkpt lat="31.09936300" lon="35.04441700">
        <ele>649.00000</ele>
        <time>2010-01-01T21:34:52Z</time>
      </trkpt>
      <trkpt lat="31.10093100" lon="35.04481000">
        <ele>662.00000</ele>
        <time>2010-01-01T21:35:56Z</time>
      </trkpt>
      <trkpt lat="31.10174000" lon="35.04569200">
        <ele>665.00000</ele>
        <time>2010-01-01T21:36:40Z</time>
      </trkpt>
      <trkpt lat="31.10152000" lon="35.04865700">
        <ele>656.00000</ele>
        <time>2010-01-01T21:38:22Z</time>
      </trkpt>
      <trkpt lat="31.10196000" lon="35.04995600">
        <ele>666.00000</ele>
        <time>2010-01-01T21:39:10Z</time>
      </trkpt>
      <trkpt lat="31.10213200" lon="35.05235800">
        <ele>661.00000</ele>
        <time>2010-01-01T21:40:33Z</time>
      </trkpt>
      <trkpt lat="31.10254900" lon="35.05483300">
        <ele>653.00000</ele>
        <time>2010-01-01T21:41:59Z</time>
      </trkpt>
      <trkpt lat="31.10382300" lon="35.05667100">
        <ele>655.00000</ele>
        <time>2010-01-01T21:43:20Z</time>
      </trkpt>
      <trkpt lat="31.10563700" lon="35.05740600">
        <ele>661.00000</ele>
        <time>2010-01-01T21:44:37Z</time>
      </trkpt>
      <trkpt lat="31.10752400" lon="35.05713700">
        <ele>649.00000</ele>
        <time>2010-01-01T21:45:53Z</time>
      </trkpt>
      <trkpt lat="31.10914100" lon="35.05620500">
        <ele>661.00000</ele>
        <time>2010-01-01T21:47:05Z</time>
      </trkpt>
      <trkpt lat="31.11068500" lon="35.05547000">
        <ele>659.00000</ele>
        <time>2010-01-01T21:48:12Z</time>
      </trkpt>
      <trkpt lat="31.11176300" lon="35.05596000">
        <ele>658.00000</ele>
        <time>2010-01-01T21:48:58Z</time>
      </trkpt>
      <trkpt lat="31.11188600" lon="35.05752900">
        <ele>653.00000</ele>
        <time>2010-01-01T21:49:52Z</time>
      </trkpt>
      <trkpt lat="31.11164100" lon="35.05872900">
        <ele>648.00000</ele>
        <time>2010-01-01T21:50:35Z</time>
      </trkpt>
      <trkpt lat="31.11178800" lon="35.06002800">
        <ele>638.00000</ele>
        <time>2010-01-01T21:51:20Z</time>
      </trkpt>
      <trkpt lat="31.11274400" lon="35.06152300">
        <ele>634.00000</ele>
        <time>2010-01-01T21:52:24Z</time>
      </trkpt>
      <trkpt lat="31.11301300" lon="35.06267500">
        <ele>640.00000</ele>
        <time>2010-01-01T21:53:04Z</time>
      </trkpt>
      <trkpt lat="31.11343000" lon="35.06331200">
        <ele>644.00000</ele>
        <time>2010-01-01T21:53:32Z</time>
      </trkpt>
      <trkpt lat="31.11431200" lon="35.06343500">
        <ele>649.00000</ele>
        <time>2010-01-01T21:54:07Z</time>
      </trkpt>
      <trkpt lat="31.11543900" lon="35.06382700">
        <ele>652.00000</ele>
        <time>2010-01-01T21:54:55Z</time>
      </trkpt>
      <trkpt lat="31.11715500" lon="35.06669400">
        <ele>643.00000</ele>
        <time>2010-01-01T21:56:54Z</time>
      </trkpt>
      <trkpt lat="31.11801300" lon="35.06718500">
        <ele>637.00000</ele>
        <time>2010-01-01T21:57:33Z</time>
      </trkpt>
      <trkpt lat="31.11857600" lon="35.06794400">
        <ele>631.00000</ele>
        <time>2010-01-01T21:58:07Z</time>
      </trkpt>
      <trkpt lat="31.11921400" lon="35.06921800">
        <ele>624.00000</ele>
        <time>2010-01-01T21:58:58Z</time>
      </trkpt>
      <trkpt lat="31.11909100" lon="35.07041900">
        <ele>615.00000</ele>
        <time>2010-01-01T21:59:39Z</time>
      </trkpt>
      <trkpt lat="31.11909100" lon="35.07142400">
        <ele>610.00000</ele>
        <time>2010-01-01T22:00:14Z</time>
      </trkpt>
      <trkpt lat="31.11914000" lon="35.07250300">
        <ele>605.00000</ele>
        <time>2010-01-01T22:00:51Z</time>
      </trkpt>
      <trkpt lat="31.11993200" lon="35.07320900">
        <ele>607.00000</ele>
        <time>2010-01-01T22:01:30Z</time>
      </trkpt>
      <trkpt lat="31.12099000" lon="35.07567000">
        <ele>606.00000</ele>
        <time>2010-01-01T22:03:05Z</time>
      </trkpt>
      <trkpt lat="31.12176800" lon="35.07737900">
        <ele>604.00000</ele>
        <time>2010-01-01T22:04:11Z</time>
      </trkpt>
      <trkpt lat="31.12342600" lon="35.08073300">
        <ele>612.00000</ele>
        <time>2010-01-01T22:06:24Z</time>
      </trkpt>
      <trkpt lat="31.12431900" lon="35.08199600">
        <ele>619.00000</ele>
        <time>2010-01-01T22:07:20Z</time>
      </trkpt>
      <trkpt lat="31.12676700" lon="35.08557900">
        <ele>618.00000</ele>
        <time>2010-01-01T22:09:57Z</time>
      </trkpt>
      <trkpt lat="31.12723900" lon="35.08561800">
        <ele>619.00000</ele>
        <time>2010-01-01T22:10:16Z</time>
      </trkpt>
      <trkpt lat="31.12748200" lon="35.08601300">
        <ele>619.00000</ele>
        <time>2010-01-01T22:10:33Z</time>
      </trkpt>
      <trkpt lat="31.12745600" lon="35.08688000">
        <ele>617.00000</ele>
        <time>2010-01-01T22:11:02Z</time>
      </trkpt>
      <trkpt lat="31.12754500" lon="35.08759400">
        <ele>620.00000</ele>
        <time>2010-01-01T22:11:27Z</time>
      </trkpt>
      <trkpt lat="31.12744300" lon="35.08827000">
        <ele>627.00000</ele>
        <time>2010-01-01T22:11:51Z</time>
      </trkpt>
      <trkpt lat="31.12746900" lon="35.08880600">
        <ele>631.00000</ele>
        <time>2010-01-01T22:12:09Z</time>
      </trkpt>
      <trkpt lat="31.12760900" lon="35.08941800">
        <ele>631.00000</ele>
        <time>2010-01-01T22:12:31Z</time>
      </trkpt>
      <trkpt lat="31.12803000" lon="35.08971100">
        <ele>630.00000</ele>
        <time>2010-01-01T22:12:50Z</time>
      </trkpt>
      <trkpt lat="31.12840000" lon="35.09009400">
        <ele>638.00000</ele>
        <time>2010-01-01T22:13:10Z</time>
      </trkpt>
      <trkpt lat="31.12841300" lon="35.09101200">
        <ele>641.00000</ele>
        <time>2010-01-01T22:13:42Z</time>
      </trkpt>
      <trkpt lat="31.12842500" lon="35.09184100">
        <ele>644.00000</ele>
        <time>2010-01-01T22:14:10Z</time>
      </trkpt>
      <trkpt lat="31.12898700" lon="35.09335900">
        <ele>642.00000</ele>
        <time>2010-01-01T22:15:07Z</time>
      </trkpt>
      <trkpt lat="31.12940700" lon="35.09454500">
        <ele>634.00000</ele>
        <time>2010-01-01T22:15:51Z</time>
      </trkpt>
      <trkpt lat="31.12970100" lon="35.09522100">
        <ele>630.00000</ele>
        <time>2010-01-01T22:16:17Z</time>
      </trkpt>
      <trkpt lat="31.12989200" lon="35.09636800">
        <ele>627.00000</ele>
        <time>2010-01-01T22:16:57Z</time>
      </trkpt>
      <trkpt lat="31.12995600" lon="35.09696800">
        <ele>626.00000</ele>
        <time>2010-01-01T22:17:17Z</time>
      </trkpt>
      <trkpt lat="31.13012200" lon="35.09759300">
        <ele>628.00000</ele>
        <time>2010-01-01T22:17:40Z</time>
      </trkpt>
      <trkpt lat="31.13073400" lon="35.09797500">
        <ele>624.00000</ele>
        <time>2010-01-01T22:18:08Z</time>
      </trkpt>
      <trkpt lat="31.13139700" lon="35.09861300">
        <ele>615.00000</ele>
        <time>2010-01-01T22:18:42Z</time>
      </trkpt>
      <trkpt lat="31.13217500" lon="35.09931400">
        <ele>613.00000</ele>
        <time>2010-01-01T22:19:21Z</time>
      </trkpt>
      <trkpt lat="31.13354800" lon="35.10014200">
        <ele>611.00000</ele>
        <time>2010-01-01T22:20:23Z</time>
      </trkpt>
      <trkpt lat="31.13491700" lon="35.10081800">
        <ele>620.00000</ele>
        <time>2010-01-01T22:21:23Z</time>
      </trkpt>
      <trkpt lat="31.13573800" lon="35.10128500">
        <ele>620.00000</ele>
        <time>2010-01-01T22:21:59Z</time>
      </trkpt>
      <trkpt lat="31.13620500" lon="35.10202600">
        <ele>624.00000</ele>
        <time>2010-01-01T22:22:31Z</time>
      </trkpt>
      <trkpt lat="31.13622100" lon="35.10278300">
        <ele>625.00000</ele>
        <time>2010-01-01T22:22:57Z</time>
      </trkpt>
      <trkpt lat="31.13638200" lon="35.10365300">
        <ele>630.00000</ele>
        <time>2010-01-01T22:23:27Z</time>
      </trkpt>
      <trkpt lat="31.13680100" lon="35.10463500">
        <ele>631.00000</ele>
        <time>2010-01-01T22:24:05Z</time>
      </trkpt>
      <trkpt lat="31.13704300" lon="35.10537600">
        <ele>630.00000</ele>
        <time>2010-01-01T22:24:32Z</time>
      </trkpt>
      <trkpt lat="31.13736500" lon="35.10582700">
        <ele>631.00000</ele>
        <time>2010-01-01T22:24:52Z</time>
      </trkpt>
      <trkpt lat="31.13788000" lon="35.10640700">
        <ele>637.00000</ele>
        <time>2010-01-01T22:25:21Z</time>
      </trkpt>
      <trkpt lat="31.13839500" lon="35.10668000">
        <ele>629.00000</ele>
        <time>2010-01-01T22:25:43Z</time>
      </trkpt>
      <trkpt lat="31.13898700" lon="35.10673200">
        <ele>628.00000</ele>
        <time>2010-01-01T22:26:07Z</time>
      </trkpt>
      <trkpt lat="31.13917000" lon="35.10748300">
        <ele>628.00000</ele>
        <time>2010-01-01T22:26:34Z</time>
      </trkpt>
      <trkpt lat="31.13949500" lon="35.10831600">
        <ele>624.00000</ele>
        <time>2010-01-01T22:27:05Z</time>
      </trkpt>
      <trkpt lat="31.13980000" lon="35.10929000">
        <ele>618.00000</ele>
        <time>2010-01-01T22:27:41Z</time>
      </trkpt>
      <trkpt lat="31.14044900" lon="35.11032500">
        <ele>619.00000</ele>
        <time>2010-01-01T22:28:25Z</time>
      </trkpt>
      <trkpt lat="31.14128200" lon="35.11081300">
        <ele>620.00000</ele>
        <time>2010-01-01T22:29:02Z</time>
      </trkpt>
      <trkpt lat="31.14191100" lon="35.11081300">
        <ele>619.00000</ele>
        <time>2010-01-01T22:29:27Z</time>
      </trkpt>
      <trkpt lat="31.14227600" lon="35.11071100">
        <ele>620.00000</ele>
        <time>2010-01-01T22:29:42Z</time>
      </trkpt>
      <trkpt lat="31.14270300" lon="35.11000100">
        <ele>623.00000</ele>
        <time>2010-01-01T22:30:12Z</time>
      </trkpt>
      <trkpt lat="31.14327100" lon="35.10939100">
        <ele>623.00000</ele>
        <time>2010-01-01T22:30:43Z</time>
      </trkpt>
      <trkpt lat="31.14390100" lon="35.10937100">
        <ele>625.00000</ele>
        <time>2010-01-01T22:31:08Z</time>
      </trkpt>
      <trkpt lat="31.14507800" lon="35.10918800">
        <ele>625.00000</ele>
        <time>2010-01-01T22:31:56Z</time>
      </trkpt>
      <trkpt lat="31.14633700" lon="35.10943200">
        <ele>610.00000</ele>
        <time>2010-01-01T22:32:47Z</time>
      </trkpt>
      <trkpt lat="31.14690500" lon="35.10922900">
        <ele>613.00000</ele>
        <time>2010-01-01T22:33:11Z</time>
      </trkpt>
      <trkpt lat="31.14749400" lon="35.10900600">
        <ele>610.00000</ele>
        <time>2010-01-01T22:33:35Z</time>
      </trkpt>
      <trkpt lat="31.14861100" lon="35.10933100">
        <ele>599.00000</ele>
        <time>2010-01-01T22:34:21Z</time>
      </trkpt>
      <trkpt lat="31.14922000" lon="35.10977700">
        <ele>599.00000</ele>
        <time>2010-01-01T22:34:50Z</time>
      </trkpt>
      <trkpt lat="31.14978800" lon="35.11024400">
        <ele>598.00000</ele>
        <time>2010-01-01T22:35:18Z</time>
      </trkpt>
      <trkpt lat="31.15035700" lon="35.11111700">
        <ele>598.00000</ele>
        <time>2010-01-01T22:35:56Z</time>
      </trkpt>
      <trkpt lat="31.15070200" lon="35.11119800">
        <ele>600.00000</ele>
        <time>2010-01-01T22:36:10Z</time>
      </trkpt>
      <trkpt lat="31.15135100" lon="35.11152300">
        <ele>602.00000</ele>
        <time>2010-01-01T22:36:38Z</time>
      </trkpt>
      <trkpt lat="31.15187900" lon="35.11199000">
        <ele>611.00000</ele>
        <time>2010-01-01T22:37:04Z</time>
      </trkpt>
      <trkpt lat="31.15244800" lon="35.11251800">
        <ele>612.00000</ele>
        <time>2010-01-01T22:37:34Z</time>
      </trkpt>
      <trkpt lat="31.15254900" lon="35.11312700">
        <ele>612.00000</ele>
        <time>2010-01-01T22:37:55Z</time>
      </trkpt>
      <trkpt lat="31.15336100" lon="35.11391900">
        <ele>599.00000</ele>
        <time>2010-01-01T22:38:37Z</time>
      </trkpt>
      <trkpt lat="31.15384800" lon="35.11426400">
        <ele>593.00000</ele>
        <time>2010-01-01T22:39:00Z</time>
      </trkpt>
      <trkpt lat="31.15460000" lon="35.11410200">
        <ele>600.00000</ele>
        <time>2010-01-01T22:39:31Z</time>
      </trkpt>
      <trkpt lat="31.15522900" lon="35.11369600">
        <ele>610.00000</ele>
        <time>2010-01-01T22:39:59Z</time>
      </trkpt>
      <trkpt lat="31.15594000" lon="35.11357400">
        <ele>608.00000</ele>
        <time>2010-01-01T22:40:28Z</time>
      </trkpt>
      <trkpt lat="31.15693400" lon="35.11379700">
        <ele>608.00000</ele>
        <time>2010-01-01T22:41:09Z</time>
      </trkpt>
      <trkpt lat="31.15782800" lon="35.11400000">
        <ele>608.00000</ele>
        <time>2010-01-01T22:41:45Z</time>
      </trkpt>
      <trkpt lat="31.15866000" lon="35.11406100">
        <ele>600.00000</ele>
        <time>2010-01-01T22:42:18Z</time>
      </trkpt>
      <trkpt lat="31.15943200" lon="35.11440600">
        <ele>597.00000</ele>
        <time>2010-01-01T22:42:52Z</time>
      </trkpt>
      <trkpt lat="31.16022300" lon="35.11475100">
        <ele>590.00000</ele>
        <time>2010-01-01T22:43:25Z</time>
      </trkpt>
      <trkpt lat="31.16073100" lon="35.11469000">
        <ele>581.00000</ele>
        <time>2010-01-01T22:43:46Z</time>
      </trkpt>
      <trkpt lat="31.16160400" lon="35.11456900">
        <ele>568.00000</ele>
        <time>2010-01-01T22:44:21Z</time>
      </trkpt>
      <trkpt lat="31.16262400" lon="35.11462100">
        <ele>563.00000</ele>
        <time>2010-01-01T22:45:02Z</time>
      </trkpt>
      <trkpt lat="31.16231100" lon="35.11397500">
        <ele>559.00000</ele>
        <time>2010-01-01T22:45:27Z</time>
      </trkpt>
      <trkpt lat="31.16206100" lon="35.11348500">
        <ele>556.00000</ele>
        <time>2010-01-01T22:45:47Z</time>
      </trkpt>
      <trkpt lat="31.16165400" lon="35.11298400">
        <ele>552.00000</ele>
        <time>2010-01-01T22:46:10Z</time>
      </trkpt>
      <trkpt lat="31.16133100" lon="35.11274400">
        <ele>553.00000</ele>
        <time>2010-01-01T22:46:26Z</time>
      </trkpt>
      <trkpt lat="31.16127900" lon="35.11254600">
        <ele>556.00000</ele>
        <time>2010-01-01T22:46:33Z</time>
      </trkpt>
      <trkpt lat="31.16180000" lon="35.11259800">
        <ele>554.00000</ele>
        <time>2010-01-01T22:46:54Z</time>
      </trkpt>
      <trkpt lat="31.16242600" lon="35.11282800">
        <ele>551.00000</ele>
        <time>2010-01-01T22:47:20Z</time>
      </trkpt>
      <trkpt lat="31.16293700" lon="35.11293200">
        <ele>547.00000</ele>
        <time>2010-01-01T22:47:41Z</time>
      </trkpt>
      <trkpt lat="31.16334400" lon="35.11255700">
        <ele>544.00000</ele>
        <time>2010-01-01T22:48:02Z</time>
      </trkpt>
      <trkpt lat="31.16386500" lon="35.11188900">
        <ele>543.00000</ele>
        <time>2010-01-01T22:48:33Z</time>
      </trkpt>
      <trkpt lat="31.16430300" lon="35.11160800">
        <ele>542.00000</ele>
        <time>2010-01-01T22:48:53Z</time>
      </trkpt>
      <trkpt lat="31.16537700" lon="35.11160800">
        <ele>537.00000</ele>
        <time>2010-01-01T22:49:36Z</time>
      </trkpt>
      <trkpt lat="31.16668000" lon="35.11204600">
        <ele>539.00000</ele>
        <time>2010-01-01T22:50:30Z</time>
      </trkpt>
      <trkpt lat="31.16693000" lon="35.11196200">
        <ele>540.00000</ele>
        <time>2010-01-01T22:50:40Z</time>
      </trkpt>
      <trkpt lat="31.16804600" lon="35.11133700">
        <ele>531.00000</ele>
        <time>2010-01-01T22:51:30Z</time>
      </trkpt>
      <trkpt lat="31.16909600" lon="35.11102800">
        <ele>532.00000</ele>
        <time>2010-01-01T22:52:13Z</time>
      </trkpt>
      <trkpt lat="31.16970300" lon="35.11065100">
        <ele>530.00000</ele>
        <time>2010-01-01T22:52:41Z</time>
      </trkpt>
      <trkpt lat="31.17065500" lon="35.10995000">
        <ele>530.00000</ele>
        <time>2010-01-01T22:53:26Z</time>
      </trkpt>
      <trkpt lat="31.17110600" lon="35.10935300">
        <ele>529.00000</ele>
        <time>2010-01-01T22:53:53Z</time>
      </trkpt>
      <trkpt lat="31.17127300" lon="35.10864100">
        <ele>525.00000</ele>
        <time>2010-01-01T22:54:18Z</time>
      </trkpt>
      <trkpt lat="31.17157700" lon="35.10796000">
        <ele>524.00000</ele>
        <time>2010-01-01T22:54:45Z</time>
      </trkpt>
      <trkpt lat="31.17187000" lon="35.10764600">
        <ele>522.00000</ele>
        <time>2010-01-01T22:55:00Z</time>
      </trkpt>
      <trkpt lat="31.17231000" lon="35.10706000">
        <ele>521.00000</ele>
        <time>2010-01-01T22:55:27Z</time>
      </trkpt>
      <trkpt lat="31.17277000" lon="35.10666200">
        <ele>518.00000</ele>
        <time>2010-01-01T22:55:50Z</time>
      </trkpt>
      <trkpt lat="31.17326200" lon="35.10643200">
        <ele>522.00000</ele>
        <time>2010-01-01T22:56:11Z</time>
      </trkpt>
      <trkpt lat="31.17403500" lon="35.10549800">
        <ele>519.00000</ele>
        <time>2010-01-01T22:56:56Z</time>
      </trkpt>
      <trkpt lat="31.17454700" lon="35.10460200">
        <ele>513.00000</ele>
        <time>2010-01-01T22:57:33Z</time>
      </trkpt>
      <trkpt lat="31.17531500" lon="35.10419300">
        <ele>512.00000</ele>
        <time>2010-01-01T22:58:06Z</time>
      </trkpt>
      <trkpt lat="31.17587800" lon="35.10391100">
        <ele>509.00000</ele>
        <time>2010-01-01T22:58:31Z</time>
      </trkpt>
      <trkpt lat="31.17690200" lon="35.10383400">
        <ele>506.00000</ele>
        <time>2010-01-01T22:59:12Z</time>
      </trkpt>
      <trkpt lat="31.17741400" lon="35.10403900">
        <ele>504.00000</ele>
        <time>2010-01-01T22:59:34Z</time>
      </trkpt>
      <trkpt lat="31.17726000" lon="35.10483300">
        <ele>507.00000</ele>
        <time>2010-01-01T23:00:02Z</time>
      </trkpt>
      <trkpt lat="31.17736300" lon="35.10572800">
        <ele>509.00000</ele>
        <time>2010-01-01T23:00:33Z</time>
      </trkpt>
      <trkpt lat="31.17737200" lon="35.10784300">
        <ele>510.00000</ele>
        <time>2010-01-01T23:01:45Z</time>
      </trkpt>
      <trkpt lat="31.17781800" lon="35.10840500">
        <ele>502.00000</ele>
        <time>2010-01-01T23:02:11Z</time>
      </trkpt>
      <trkpt lat="31.17813600" lon="35.10858500">
        <ele>502.00000</ele>
        <time>2010-01-01T23:02:25Z</time>
      </trkpt>
      <trkpt lat="31.17827400" lon="35.10854300">
        <ele>501.00000</ele>
        <time>2010-01-01T23:02:31Z</time>
      </trkpt>
      <trkpt lat="31.17868800" lon="35.10835200">
        <ele>499.00000</ele>
        <time>2010-01-01T23:02:49Z</time>
      </trkpt>
      <trkpt lat="31.17911200" lon="35.10853200">
        <ele>496.00000</ele>
        <time>2010-01-01T23:03:07Z</time>
      </trkpt>
      <trkpt lat="31.17964200" lon="35.10923200">
        <ele>497.00000</ele>
        <time>2010-01-01T23:03:39Z</time>
      </trkpt>
      <trkpt lat="31.17991800" lon="35.10914800">
        <ele>495.00000</ele>
        <time>2010-01-01T23:03:50Z</time>
      </trkpt>
      <trkpt lat="31.18028900" lon="35.10903100">
        <ele>494.00000</ele>
        <time>2010-01-01T23:04:06Z</time>
      </trkpt>
      <trkpt lat="31.18074500" lon="35.10899900">
        <ele>491.00000</ele>
        <time>2010-01-01T23:04:24Z</time>
      </trkpt>
      <trkpt lat="31.18104300" lon="35.10924300">
        <ele>490.00000</ele>
        <time>2010-01-01T23:04:39Z</time>
      </trkpt>
      <trkpt lat="31.18137100" lon="35.10923200">
        <ele>488.00000</ele>
        <time>2010-01-01T23:04:52Z</time>
      </trkpt>
      <trkpt lat="31.18205000" lon="35.10962500">
        <ele>486.00000</ele>
        <time>2010-01-01T23:05:22Z</time>
      </trkpt>
      <trkpt lat="31.18235800" lon="35.10920000">
        <ele>483.00000</ele>
        <time>2010-01-01T23:05:41Z</time>
      </trkpt>
      <trkpt lat="31.18283500" lon="35.10941300">
        <ele>482.00000</ele>
        <time>2010-01-01T23:06:02Z</time>
      </trkpt>
      <trkpt lat="31.18309000" lon="35.10982600">
        <ele>485.00000</ele>
        <time>2010-01-01T23:06:19Z</time>
      </trkpt>
      <trkpt lat="31.18357800" lon="35.10996400">
        <ele>479.00000</ele>
        <time>2010-01-01T23:06:39Z</time>
      </trkpt>
      <trkpt lat="31.18404500" lon="35.10999600">
        <ele>476.00000</ele>
        <time>2010-01-01T23:06:58Z</time>
      </trkpt>
      <trkpt lat="31.18432000" lon="35.11026100">
        <ele>475.00000</ele>
        <time>2010-01-01T23:07:12Z</time>
      </trkpt>
      <trkpt lat="31.18442700" lon="35.11083400">
        <ele>475.00000</ele>
        <time>2010-01-01T23:07:32Z</time>
      </trkpt>
      <trkpt lat="31.18479800" lon="35.11120500">
        <ele>474.00000</ele>
        <time>2010-01-01T23:07:52Z</time>
      </trkpt>
      <trkpt lat="31.18502100" lon="35.11161900">
        <ele>473.00000</ele>
        <time>2010-01-01T23:08:08Z</time>
      </trkpt>
      <trkpt lat="31.18522200" lon="35.11194800">
        <ele>473.00000</ele>
        <time>2010-01-01T23:08:22Z</time>
      </trkpt>
      <trkpt lat="31.18565700" lon="35.11216000">
        <ele>472.00000</ele>
        <time>2010-01-01T23:08:41Z</time>
      </trkpt>
      <trkpt lat="31.18608100" lon="35.11242500">
        <ele>469.00000</ele>
        <time>2010-01-01T23:09:00Z</time>
      </trkpt>
      <trkpt lat="31.18631500" lon="35.11277500">
        <ele>468.00000</ele>
        <time>2010-01-01T23:09:16Z</time>
      </trkpt>
      <trkpt lat="31.18643200" lon="35.11336900">
        <ele>467.00000</ele>
        <time>2010-01-01T23:09:37Z</time>
      </trkpt>
      <trkpt lat="31.18646300" lon="35.11405900">
        <ele>467.00000</ele>
        <time>2010-01-01T23:10:00Z</time>
      </trkpt>
      <trkpt lat="31.18640000" lon="35.11432400">
        <ele>467.00000</ele>
        <time>2010-01-01T23:10:10Z</time>
      </trkpt>
      <trkpt lat="31.18607100" lon="35.11450400">
        <ele>464.00000</ele>
        <time>2010-01-01T23:10:24Z</time>
      </trkpt>
      <trkpt lat="31.18590100" lon="35.11466400">
        <ele>463.00000</ele>
        <time>2010-01-01T23:10:33Z</time>
      </trkpt>
      <trkpt lat="31.18578400" lon="35.11492900">
        <ele>463.00000</ele>
        <time>2010-01-01T23:10:43Z</time>
      </trkpt>
      <trkpt lat="31.18567800" lon="35.11519400">
        <ele>462.00000</ele>
        <time>2010-01-01T23:10:53Z</time>
      </trkpt>
      <trkpt lat="31.18607100" lon="35.11561900">
        <ele>461.00000</ele>
        <time>2010-01-01T23:11:15Z</time>
      </trkpt>
      <trkpt lat="31.18607100" lon="35.11602200">
        <ele>461.00000</ele>
        <time>2010-01-01T23:11:28Z</time>
      </trkpt>
      <trkpt lat="31.18634700" lon="35.11619100">
        <ele>461.00000</ele>
        <time>2010-01-01T23:11:41Z</time>
      </trkpt>
      <trkpt lat="31.18673100" lon="35.11678400">
        <ele>459.00000</ele>
        <time>2010-01-01T23:12:06Z</time>
      </trkpt>
      <trkpt lat="31.18729800" lon="35.11775700">
        <ele>457.00000</ele>
        <time>2010-01-01T23:12:47Z</time>
      </trkpt>
      <trkpt lat="31.18806900" lon="35.11775700">
        <ele>458.00000</ele>
        <time>2010-01-01T23:13:17Z</time>
      </trkpt>
      <trkpt lat="31.18892000" lon="35.11812200">
        <ele>454.00000</ele>
        <time>2010-01-01T23:13:54Z</time>
      </trkpt>
      <trkpt lat="31.18940700" lon="35.11917600">
        <ele>454.00000</ele>
        <time>2010-01-01T23:14:35Z</time>
      </trkpt>
      <trkpt lat="31.19009600" lon="35.11917600">
        <ele>451.00000</ele>
        <time>2010-01-01T23:15:02Z</time>
      </trkpt>
      <trkpt lat="31.19062300" lon="35.11966300">
        <ele>451.00000</ele>
        <time>2010-01-01T23:15:29Z</time>
      </trkpt>
      <trkpt lat="31.19147500" lon="35.12063600">
        <ele>446.00000</ele>
        <time>2010-01-01T23:16:17Z</time>
      </trkpt>
      <trkpt lat="31.19244700" lon="35.12164900">
        <ele>441.00000</ele>
        <time>2010-01-01T23:17:09Z</time>
      </trkpt>
      <trkpt lat="31.19342000" lon="35.12250000">
        <ele>439.00000</ele>
        <time>2010-01-01T23:17:58Z</time>
      </trkpt>
      <trkpt lat="31.19427200" lon="35.12375700">
        <ele>436.00000</ele>
        <time>2010-01-01T23:18:53Z</time>
      </trkpt>
      <trkpt lat="31.19573200" lon="35.12335200">
        <ele>443.00000</ele>
        <time>2010-01-01T23:19:53Z</time>
      </trkpt>
      <trkpt lat="31.19621800" lon="35.12201400">
        <ele>444.00000</ele>
        <time>2010-01-01T23:20:42Z</time>
      </trkpt>
      <trkpt lat="31.19678600" lon="35.12128400">
        <ele>450.00000</ele>
        <time>2010-01-01T23:21:16Z</time>
      </trkpt>
      <trkpt lat="31.19706900" lon="35.12031100">
        <ele>448.00000</ele>
        <time>2010-01-01T23:21:51Z</time>
      </trkpt>
      <trkpt lat="31.19828600" lon="35.12002700">
        <ele>452.00000</ele>
        <time>2010-01-01T23:22:41Z</time>
      </trkpt>
      <trkpt lat="31.19943000" lon="35.11953900">
        <ele>453.00000</ele>
        <time>2010-01-01T23:23:30Z</time>
      </trkpt>
      <trkpt lat="31.20041600" lon="35.11997300">
        <ele>456.00000</ele>
        <time>2010-01-01T23:24:12Z</time>
      </trkpt>
      <trkpt lat="31.20103400" lon="35.11933800">
        <ele>459.00000</ele>
        <time>2010-01-01T23:24:45Z</time>
      </trkpt>
      <trkpt lat="31.20197000" lon="35.11853600">
        <ele>462.00000</ele>
        <time>2010-01-01T23:25:31Z</time>
      </trkpt>
      <trkpt lat="31.20263800" lon="35.11815200">
        <ele>462.00000</ele>
        <time>2010-01-01T23:26:01Z</time>
      </trkpt>
      <trkpt lat="31.20364100" lon="35.11833500">
        <ele>462.00000</ele>
        <time>2010-01-01T23:26:42Z</time>
      </trkpt>
      <trkpt lat="31.20449300" lon="35.11811800">
        <ele>463.00000</ele>
        <time>2010-01-01T23:27:17Z</time>
      </trkpt>
      <trkpt lat="31.20546200" lon="35.11688200">
        <ele>469.00000</ele>
        <time>2010-01-01T23:28:14Z</time>
      </trkpt>
      <trkpt lat="31.20656400" lon="35.11484400">
        <ele>477.00000</ele>
        <time>2010-01-01T23:29:37Z</time>
      </trkpt>
      <trkpt lat="31.20750000" lon="35.11559500">
        <ele>484.00000</ele>
        <time>2010-01-01T23:30:22Z</time>
      </trkpt>
      <trkpt lat="31.20821900" lon="35.11668200">
        <ele>489.00000</ele>
        <time>2010-01-01T23:31:09Z</time>
      </trkpt>
      <trkpt lat="31.20890400" lon="35.11853600">
        <ele>485.00000</ele>
        <time>2010-01-01T23:32:18Z</time>
      </trkpt>
      <trkpt lat="31.21232400" lon="35.11884000">
        <ele>475.00000</ele>
        <time>2010-01-01T23:34:36Z</time>
      </trkpt>
      <trkpt lat="31.21386300" lon="35.11946200">
        <ele>484.00000</ele>
        <time>2010-01-01T23:35:41Z</time>
      </trkpt>
      <trkpt lat="31.21481300" lon="35.12116500">
        <ele>491.00000</ele>
        <time>2010-01-01T23:36:50Z</time>
      </trkpt>
      <trkpt lat="31.21740000" lon="35.11923300">
        <ele>487.00000</ele>
        <time>2010-01-01T23:38:53Z</time>
      </trkpt>
      <trkpt lat="31.22106700" lon="35.11893800">
        <ele>491.00000</ele>
        <time>2010-01-01T23:41:20Z</time>
      </trkpt>
      <trkpt lat="31.22326100" lon="35.11812000">
        <ele>495.00000</ele>
        <time>2010-01-01T23:42:53Z</time>
      </trkpt>
      <trkpt lat="31.22604400" lon="35.11681000">
        <ele>490.00000</ele>
        <time>2010-01-01T23:44:53Z</time>
      </trkpt>
      <trkpt lat="31.22938100" lon="35.12614100">
        <ele>489.00000</ele>
        <time>2010-01-01T23:50:39Z</time>
      </trkpt>
      <trkpt lat="31.22978900" lon="35.12626400">
        <ele>487.00000</ele>
        <time>2010-01-01T23:50:56Z</time>
      </trkpt>
      <trkpt lat="31.23079700" lon="35.12687600">
        <ele>485.00000</ele>
        <time>2010-01-01T23:51:41Z</time>
      </trkpt>
      <trkpt lat="31.23239000" lon="35.12723000">
        <ele>473.00000</ele>
        <time>2010-01-01T23:52:46Z</time>
      </trkpt>
      <trkpt lat="31.23946200" lon="35.12898400">
        <ele>487.00000</ele>
        <time>2010-01-01T23:57:36Z</time>
      </trkpt>
      <trkpt lat="31.24023900" lon="35.12927800">
        <ele>484.00000</ele>
        <time>2010-01-01T23:58:08Z</time>
      </trkpt>
      <trkpt lat="31.24091300" lon="35.12889800">
        <ele>482.00000</ele>
        <time>2010-01-01T23:58:38Z</time>
      </trkpt>
      <trkpt lat="31.24141400" lon="35.12850100">
        <ele>479.00000</ele>
        <time>2010-01-01T23:59:02Z</time>
      </trkpt>
      <trkpt lat="31.24217400" lon="35.12851800">
        <ele>477.00000</ele>
        <time>2010-01-01T23:59:33Z</time>
      </trkpt>
      <trkpt lat="31.24271000" lon="35.12796500">
        <ele>474.00000</ele>
        <time>2010-01-02T00:00:01Z</time>
      </trkpt>
      <trkpt lat="31.24329700" lon="35.12851800">
        <ele>477.00000</ele>
        <time>2010-01-02T00:00:32Z</time>
      </trkpt>
      <trkpt lat="31.24367800" lon="35.12751500">
        <ele>473.00000</ele>
        <time>2010-01-02T00:01:09Z</time>
      </trkpt>
      <trkpt lat="31.24544000" lon="35.12832800">
        <ele>474.00000</ele>
        <time>2010-01-02T00:02:25Z</time>
      </trkpt>
      <trkpt lat="31.24984600" lon="35.13107500">
        <ele>487.00000</ele>
        <time>2010-01-02T00:05:45Z</time>
      </trkpt>
      <trkpt lat="31.25088300" lon="35.13204300">
        <ele>481.00000</ele>
        <time>2010-01-02T00:06:38Z</time>
      </trkpt>
      <trkpt lat="31.25126300" lon="35.13318300">
        <ele>480.00000</ele>
        <time>2010-01-02T00:07:20Z</time>
      </trkpt>
      <trkpt lat="31.25160900" lon="35.13323500">
        <ele>481.00000</ele>
        <time>2010-01-02T00:07:34Z</time>
      </trkpt>
      <trkpt lat="31.25186800" lon="35.13373600">
        <ele>479.00000</ele>
        <time>2010-01-02T00:07:54Z</time>
      </trkpt>
      <trkpt lat="31.25245500" lon="35.13404700">
        <ele>482.00000</ele>
        <time>2010-01-02T00:08:20Z</time>
      </trkpt>
      <trkpt lat="31.25344000" lon="35.13513500">
        <ele>480.00000</ele>
        <time>2010-01-02T00:09:14Z</time>
      </trkpt>
      <trkpt lat="31.25409700" lon="35.13537700">
        <ele>482.00000</ele>
        <time>2010-01-02T00:09:42Z</time>
      </trkpt>
      <trkpt lat="31.25503300" lon="35.13694600">
        <ele>484.00000</ele>
        <time>2010-01-02T00:10:47Z</time>
      </trkpt>
      <trkpt lat="31.25603900" lon="35.13837500">
        <ele>485.00000</ele>
        <time>2010-01-02T00:11:50Z</time>
      </trkpt>
      <trkpt lat="31.25842200" lon="35.13969900">
        <ele>488.00000</ele>
        <time>2010-01-02T00:13:36Z</time>
      </trkpt>
      <trkpt lat="31.26043400" lon="35.14139300">
        <ele>488.00000</ele>
        <time>2010-01-02T00:15:15Z</time>
      </trkpt>
      <trkpt lat="31.26233900" lon="35.14276900">
        <ele>490.00000</ele>
        <time>2010-01-02T00:16:45Z</time>
      </trkpt>
      <trkpt lat="31.26456300" lon="35.14430500">
        <ele>490.00000</ele>
        <time>2010-01-02T00:18:28Z</time>
      </trkpt>
      <trkpt lat="31.26662800" lon="35.14261100">
        <ele>496.00000</ele>
        <time>2010-01-02T00:20:09Z</time>
      </trkpt>
      <trkpt lat="31.26906300" lon="35.13916900">
        <ele>499.00000</ele>
        <time>2010-01-02T00:22:42Z</time>
      </trkpt>
      <trkpt lat="31.27202800" lon="35.13556900">
        <ele>506.00000</ele>
        <time>2010-01-02T00:25:33Z</time>
      </trkpt>
      <trkpt lat="31.27467500" lon="35.12836900">
        <ele>519.00000</ele>
        <time>2010-01-02T00:30:01Z</time>
      </trkpt>
      <trkpt lat="31.27594600" lon="35.12535100">
        <ele>528.00000</ele>
        <time>2010-01-02T00:31:56Z</time>
      </trkpt>
      <trkpt lat="31.27668700" lon="35.12281000">
        <ele>530.00000</ele>
        <time>2010-01-02T00:33:28Z</time>
      </trkpt>
      <trkpt lat="31.27832900" lon="35.12159200">
        <ele>535.00000</ele>
        <time>2010-01-02T00:34:46Z</time>
      </trkpt>
      <trkpt lat="31.27896400" lon="35.11995100">
        <ele>539.00000</ele>
        <time>2010-01-02T00:35:48Z</time>
      </trkpt>
      <trkpt lat="31.28118800" lon="35.11476200">
        <ele>526.00000</ele>
        <time>2010-01-02T00:39:06Z</time>
      </trkpt>
      <trkpt lat="31.28288200" lon="35.11031500">
        <ele>502.00000</ele>
        <time>2010-01-02T00:41:53Z</time>
      </trkpt>
      <trkpt lat="31.28621700" lon="35.10941500">
        <ele>508.00000</ele>
        <time>2010-01-02T00:44:10Z</time>
      </trkpt>
      <trkpt lat="31.28854700" lon="35.10777300">
        <ele>514.00000</ele>
        <time>2010-01-02T00:45:59Z</time>
      </trkpt>
      <trkpt lat="31.28860000" lon="35.10486200">
        <ele>515.00000</ele>
        <time>2010-01-02T00:47:38Z</time>
      </trkpt>
      <trkpt lat="31.28992300" lon="35.10311400">
        <ele>519.00000</ele>
        <time>2010-01-02T00:48:58Z</time>
      </trkpt>
      <trkpt lat="31.29167100" lon="35.09898500">
        <ele>517.00000</ele>
        <time>2010-01-02T00:51:36Z</time>
      </trkpt>
      <trkpt lat="31.29421200" lon="35.09427300">
        <ele>524.00000</ele>
        <time>2010-01-02T00:54:46Z</time>
      </trkpt>
      <trkpt lat="31.29521800" lon="35.09236600">
        <ele>525.00000</ele>
        <time>2010-01-02T00:56:03Z</time>
      </trkpt>
      <trkpt lat="31.29617100" lon="35.09083100">
        <ele>525.00000</ele>
        <time>2010-01-02T00:57:08Z</time>
      </trkpt>
      <trkpt lat="31.29712400" lon="35.08770800">
        <ele>526.00000</ele>
        <time>2010-01-02T00:59:01Z</time>
      </trkpt>
      <trkpt lat="31.29897700" lon="35.08601300">
        <ele>537.00000</ele>
        <time>2010-01-02T01:00:36Z</time>
      </trkpt>
      <trkpt lat="31.29982400" lon="35.08421300">
        <ele>551.00000</ele>
        <time>2010-01-02T01:01:46Z</time>
      </trkpt>
      <trkpt lat="31.30077700" lon="35.08341900">
        <ele>557.00000</ele>
        <time>2010-01-02T01:02:33Z</time>
      </trkpt>
      <trkpt lat="31.30167700" lon="35.08278400">
        <ele>556.00000</ele>
        <time>2010-01-02T01:03:15Z</time>
      </trkpt>
      <trkpt lat="31.30289500" lon="35.08236000">
        <ele>562.00000</ele>
        <time>2010-01-02T01:04:06Z</time>
      </trkpt>
      <trkpt lat="31.30458900" lon="35.08241300">
        <ele>590.00000</ele>
        <time>2010-01-02T01:05:13Z</time>
      </trkpt>
      <trkpt lat="31.30548900" lon="35.08251900">
        <ele>602.00000</ele>
        <time>2010-01-02T01:05:50Z</time>
      </trkpt>
      <trkpt lat="31.30691900" lon="35.08315400">
        <ele>617.00000</ele>
        <time>2010-01-02T01:06:51Z</time>
      </trkpt>
      <trkpt lat="31.30850700" lon="35.08442500">
        <ele>629.00000</ele>
        <time>2010-01-02T01:08:08Z</time>
      </trkpt>
      <trkpt lat="31.30998900" lon="35.08521900">
        <ele>631.00000</ele>
        <time>2010-01-02T01:09:13Z</time>
      </trkpt>
      <trkpt lat="31.31194800" lon="35.08511300">
        <ele>651.00000</ele>
        <time>2010-01-02T01:10:32Z</time>
      </trkpt>
      <trkpt lat="31.31369500" lon="35.08585500">
        <ele>676.00000</ele>
        <time>2010-01-02T01:11:46Z</time>
      </trkpt>
      <trkpt lat="31.31512500" lon="35.08617200">
        <ele>691.00000</ele>
        <time>2010-01-02T01:12:44Z</time>
      </trkpt>
      <trkpt lat="31.31681900" lon="35.08654300">
        <ele>709.00000</ele>
        <time>2010-01-02T01:13:53Z</time>
      </trkpt>
      <trkpt lat="31.31830200" lon="35.08686000">
        <ele>730.00000</ele>
        <time>2010-01-02T01:14:54Z</time>
      </trkpt>
      <trkpt lat="31.32020700" lon="35.08760200">
        <ele>744.00000</ele>
        <time>2010-01-02T01:16:14Z</time>
      </trkpt>
      <trkpt lat="31.32179600" lon="35.08781300">
        <ele>759.00000</ele>
        <time>2010-01-02T01:17:18Z</time>
      </trkpt>
      <trkpt lat="31.32364900" lon="35.08797200">
        <ele>766.00000</ele>
        <time>2010-01-02T01:18:32Z</time>
      </trkpt>
      <trkpt lat="31.32507800" lon="35.08866100">
        <ele>781.00000</ele>
        <time>2010-01-02T01:19:34Z</time>
      </trkpt>
      <trkpt lat="31.32644400" lon="35.09082300">
        <ele>802.00000</ele>
        <time>2010-01-02T01:21:06Z</time>
      </trkpt>
      <trkpt lat="31.32719400" lon="35.09174700">
        <ele>811.00000</ele>
        <time>2010-01-02T01:21:50Z</time>
      </trkpt>
      <trkpt lat="30.99821160" lon="34.94167320">
        <ele>510.00000</ele>
        <time>2010-01-02T05:17:27Z</time>
      </trkpt>
      <trkpt lat="30.99762300" lon="34.94270320">
        <ele>511.00000</ele>
        <time>2010-01-02T05:18:09Z</time>
      </trkpt>
      <trkpt lat="30.99850590" lon="34.94373320">
        <ele>511.00000</ele>
        <time>2010-01-02T05:18:59Z</time>
      </trkpt>
      <trkpt lat="31.32827270" lon="35.09213440">
        <ele>824.00000</ele>
        <time>2010-01-02T09:14:45Z</time>
      </trkpt>
      <trkpt lat="31.32812610" lon="35.09239190">
        <ele>824.00000</ele>
        <time>2010-01-02T09:14:55Z</time>
      </trkpt>
    </trkseg>
  </trk>
</gpx>

